<?xml version="1.0" encoding="utf-8"?>
<gpx xmlns:xsi="http://www.w3.org/2001/XMLSchema-instance" xmlns:xsd="http://www.w3.org/2001/XMLSchema" version="1.1" creator="Shapelink.com" xmlns="http://www.topografix.com/GPX/1/1" xmlns:gpxtpx="http://www.garmin.com/xmlschemas/TrackPointExtension/v1">
  <metadata>
    <name>Kører 9.00 km, 2019-11-12</name>
    <desc></desc>
    <author><name>Per Rooth</name></author> 
    <time>2019-11-12T18:05:12Z</time>
  </metadata>
  <trk>
    <name>Kører 9.00 km, 2019-11-12</name>
    <trkseg>
      <trkpt lat="56.891355501554" lon="14.823649737443">
        <ele>172.6</ele>
        <time>2019-11-12T18:05:12Z</time>
      </trkpt>
      <trkpt lat="56.891329098569" lon="14.823717714652">
        <ele>172.6</ele>
        <time>2019-11-12T18:05:15Z</time>
      </trkpt>
      <trkpt lat="56.891363045264" lon="14.823399956823">
        <ele>171.8</ele>
        <time>2019-11-12T18:05:25Z</time>
      </trkpt>
      <trkpt lat="56.891302360308" lon="14.823080438795">
        <ele>172.2</ele>
        <time>2019-11-12T18:05:36Z</time>
      </trkpt>
      <trkpt lat="56.891337983383" lon="14.822973150475">
        <ele>172.2</ele>
        <time>2019-11-12T18:05:39Z</time>
      </trkpt>
      <trkpt lat="56.891475949457" lon="14.822951022259">
        <ele>172.2</ele>
        <time>2019-11-12T18:05:45Z</time>
      </trkpt>
      <trkpt lat="56.891663787836" lon="14.822923026713">
        <ele>172</ele>
        <time>2019-11-12T18:05:53Z</time>
      </trkpt>
      <trkpt lat="56.891858415554" lon="14.822882374498">
        <ele>171.6</ele>
        <time>2019-11-12T18:06:01Z</time>
      </trkpt>
      <trkpt lat="56.892030998875" lon="14.822865023965">
        <ele>171.4</ele>
        <time>2019-11-12T18:06:07Z</time>
      </trkpt>
      <trkpt lat="56.892231074828" lon="14.822812050357">
        <ele>171.6</ele>
        <time>2019-11-12T18:06:16Z</time>
      </trkpt>
      <trkpt lat="56.892347080324" lon="14.822779612404">
        <ele>171.2</ele>
        <time>2019-11-12T18:06:21Z</time>
      </trkpt>
      <trkpt lat="56.892535337798" lon="14.8227447437">
        <ele>171</ele>
        <time>2019-11-12T18:06:28Z</time>
      </trkpt>
      <trkpt lat="56.892692414604" lon="14.822741139483">
        <ele>170.4</ele>
        <time>2019-11-12T18:06:34Z</time>
      </trkpt>
      <trkpt lat="56.892771707378" lon="14.822740636569">
        <ele>170</ele>
        <time>2019-11-12T18:06:37Z</time>
      </trkpt>
      <trkpt lat="56.892968933485" lon="14.822732673764">
        <ele>170.2</ele>
        <time>2019-11-12T18:06:44Z</time>
      </trkpt>
      <trkpt lat="56.893160711357" lon="14.822732087031">
        <ele>169.6</ele>
        <time>2019-11-12T18:06:51Z</time>
      </trkpt>
      <trkpt lat="56.893342179492" lon="14.822713060118">
        <ele>169.8</ele>
        <time>2019-11-12T18:06:58Z</time>
      </trkpt>
      <trkpt lat="56.89352507255" lon="14.822690848083">
        <ele>169.2</ele>
        <time>2019-11-12T18:07:05Z</time>
      </trkpt>
      <trkpt lat="56.893595229053" lon="14.82268020307">
        <ele>169.4</ele>
        <time>2019-11-12T18:07:08Z</time>
      </trkpt>
      <trkpt lat="56.893727243978" lon="14.822673329912">
        <ele>169</ele>
        <time>2019-11-12T18:07:13Z</time>
      </trkpt>
      <trkpt lat="56.893924553904" lon="14.822730997384">
        <ele>169.2</ele>
        <time>2019-11-12T18:07:21Z</time>
      </trkpt>
      <trkpt lat="56.894102334003" lon="14.822839626808">
        <ele>169</ele>
        <time>2019-11-12T18:07:28Z</time>
      </trkpt>
      <trkpt lat="56.894271564564" lon="14.82304984486">
        <ele>169.2</ele>
        <time>2019-11-12T18:07:36Z</time>
      </trkpt>
      <trkpt lat="56.894392263924" lon="14.823314545262">
        <ele>169.4</ele>
        <time>2019-11-12T18:07:43Z</time>
      </trkpt>
      <trkpt lat="56.894471556698" lon="14.823532055567">
        <ele>169.2</ele>
        <time>2019-11-12T18:07:48Z</time>
      </trkpt>
      <trkpt lat="56.894577084819" lon="14.823815699063">
        <ele>169.6</ele>
        <time>2019-11-12T18:07:55Z</time>
      </trkpt>
      <trkpt lat="56.894686384795" lon="14.824115519626">
        <ele>169.2</ele>
        <time>2019-11-12T18:08:02Z</time>
      </trkpt>
      <trkpt lat="56.894799624264" lon="14.824427745401">
        <ele>169.8</ele>
        <time>2019-11-12T18:08:09Z</time>
      </trkpt>
      <trkpt lat="56.894923676384" lon="14.824709880155">
        <ele>169.6</ele>
        <time>2019-11-12T18:08:16Z</time>
      </trkpt>
      <trkpt lat="56.895042699364" lon="14.825010538908">
        <ele>169.2</ele>
        <time>2019-11-12T18:08:24Z</time>
      </trkpt>
      <trkpt lat="56.895049404884" lon="14.825043312137">
        <ele>169</ele>
        <time>2019-11-12T18:08:25Z</time>
      </trkpt>
      <trkpt lat="56.89514948477" lon="14.825360650871">
        <ele>170</ele>
        <time>2019-11-12T18:08:35Z</time>
      </trkpt>
      <trkpt lat="56.895164991285" lon="14.825401386905">
        <ele>170</ele>
        <time>2019-11-12T18:08:36Z</time>
      </trkpt>
      <trkpt lat="56.895252330683" lon="14.825608168378">
        <ele>169</ele>
        <time>2019-11-12T18:08:41Z</time>
      </trkpt>
      <trkpt lat="56.895400019761" lon="14.825872114409">
        <ele>168.6</ele>
        <time>2019-11-12T18:08:48Z</time>
      </trkpt>
      <trkpt lat="56.895534968351" lon="14.826107226704">
        <ele>168.8</ele>
        <time>2019-11-12T18:08:54Z</time>
      </trkpt>
      <trkpt lat="56.895675365176" lon="14.82628609645">
        <ele>168.4</ele>
        <time>2019-11-12T18:09:00Z</time>
      </trkpt>
      <trkpt lat="56.895865047573" lon="14.82643445608">
        <ele>168.4</ele>
        <time>2019-11-12T18:09:07Z</time>
      </trkpt>
      <trkpt lat="56.89604467169" lon="14.826500924547">
        <ele>168.4</ele>
        <time>2019-11-12T18:09:13Z</time>
      </trkpt>
      <trkpt lat="56.896234857001" lon="14.826498661434">
        <ele>168.6</ele>
        <time>2019-11-12T18:09:20Z</time>
      </trkpt>
      <trkpt lat="56.896425629045" lon="14.826401179937">
        <ele>168.6</ele>
        <time>2019-11-12T18:09:27Z</time>
      </trkpt>
      <trkpt lat="56.89658698062" lon="14.826192722084">
        <ele>168.8</ele>
        <time>2019-11-12T18:09:34Z</time>
      </trkpt>
      <trkpt lat="56.896719247002" lon="14.82600446461">
        <ele>168.8</ele>
        <time>2019-11-12T18:09:40Z</time>
      </trkpt>
      <trkpt lat="56.896872719591" lon="14.825834479678">
        <ele>168.6</ele>
        <time>2019-11-12T18:09:46Z</time>
      </trkpt>
      <trkpt lat="56.897065419472" lon="14.825726856082">
        <ele>168.6</ele>
        <time>2019-11-12T18:09:53Z</time>
      </trkpt>
      <trkpt lat="56.897261136837" lon="14.825760132225">
        <ele>168.6</ele>
        <time>2019-11-12T18:10:00Z</time>
      </trkpt>
      <trkpt lat="56.897442018239" lon="14.825940007799">
        <ele>168.6</ele>
        <time>2019-11-12T18:10:07Z</time>
      </trkpt>
      <trkpt lat="56.89759951414" lon="14.826104041582">
        <ele>168.6</ele>
        <time>2019-11-12T18:10:13Z</time>
      </trkpt>
      <trkpt lat="56.897754411652" lon="14.826272601591">
        <ele>168.4</ele>
        <time>2019-11-12T18:10:20Z</time>
      </trkpt>
      <trkpt lat="56.897939651642" lon="14.826435713365">
        <ele>168.8</ele>
        <time>2019-11-12T18:10:27Z</time>
      </trkpt>
      <trkpt lat="56.898121957967" lon="14.82661047598">
        <ele>169</ele>
        <time>2019-11-12T18:10:34Z</time>
      </trkpt>
      <trkpt lat="56.898284063913" lon="14.826767552786">
        <ele>169</ele>
        <time>2019-11-12T18:10:40Z</time>
      </trkpt>
      <trkpt lat="56.898461927831" lon="14.826945165247">
        <ele>168</ele>
        <time>2019-11-12T18:10:47Z</time>
      </trkpt>
      <trkpt lat="56.898483469314" lon="14.826968047834">
        <ele>168</ele>
        <time>2019-11-12T18:10:48Z</time>
      </trkpt>
      <trkpt lat="56.898522528968" lon="14.827021524356">
        <ele>168</ele>
        <time>2019-11-12T18:10:50Z</time>
      </trkpt>
      <trkpt lat="56.898693855004" lon="14.827235681901">
        <ele>168.2</ele>
        <time>2019-11-12T18:10:57Z</time>
      </trkpt>
      <trkpt lat="56.898835592933" lon="14.827477667354">
        <ele>168.2</ele>
        <time>2019-11-12T18:11:04Z</time>
      </trkpt>
      <trkpt lat="56.898979007242" lon="14.827706660862">
        <ele>168.4</ele>
        <time>2019-11-12T18:11:10Z</time>
      </trkpt>
      <trkpt lat="56.89909652148" lon="14.827999272991">
        <ele>167.8</ele>
        <time>2019-11-12T18:11:17Z</time>
      </trkpt>
      <trkpt lat="56.89919878066" lon="14.828339913407">
        <ele>167.8</ele>
        <time>2019-11-12T18:11:25Z</time>
      </trkpt>
      <trkpt lat="56.899350828326" lon="14.828662029824">
        <ele>168</ele>
        <time>2019-11-12T18:11:29Z</time>
      </trkpt>
      <trkpt lat="56.899478987577" lon="14.828907284218">
        <ele>168.2</ele>
        <time>2019-11-12T18:11:36Z</time>
      </trkpt>
      <trkpt lat="56.899648637233" lon="14.82901691947">
        <ele>168.2</ele>
        <time>2019-11-12T18:11:45Z</time>
      </trkpt>
      <trkpt lat="56.89983329049" lon="14.829103923592">
        <ele>168.6</ele>
        <time>2019-11-12T18:11:53Z</time>
      </trkpt>
      <trkpt lat="56.899945021217" lon="14.829205679858">
        <ele>168.4</ele>
        <time>2019-11-12T18:11:58Z</time>
      </trkpt>
      <trkpt lat="56.900012830788" lon="14.829311627074">
        <ele>169.2</ele>
        <time>2019-11-12T18:12:02Z</time>
      </trkpt>
      <trkpt lat="56.900139816573" lon="14.829551600871">
        <ele>169.6</ele>
        <time>2019-11-12T18:12:10Z</time>
      </trkpt>
      <trkpt lat="56.900250206196" lon="14.829813032332">
        <ele>169.8</ele>
        <time>2019-11-12T18:12:17Z</time>
      </trkpt>
      <trkpt lat="56.900279375208" lon="14.829888050337">
        <ele>170.2</ele>
        <time>2019-11-12T18:12:19Z</time>
      </trkpt>
      <trkpt lat="56.900385573881" lon="14.83019792918">
        <ele>170.4</ele>
        <time>2019-11-12T18:12:26Z</time>
      </trkpt>
      <trkpt lat="56.900491353459" lon="14.830528343678">
        <ele>170.8</ele>
        <time>2019-11-12T18:12:32Z</time>
      </trkpt>
      <trkpt lat="56.900593780277" lon="14.830838054883">
        <ele>170.8</ele>
        <time>2019-11-12T18:12:38Z</time>
      </trkpt>
      <trkpt lat="56.90068572972" lon="14.831146341165">
        <ele>170.8</ele>
        <time>2019-11-12T18:12:44Z</time>
      </trkpt>
      <trkpt lat="56.900711378334" lon="14.831487568314">
        <ele>171</ele>
        <time>2019-11-12T18:12:51Z</time>
      </trkpt>
      <trkpt lat="56.90073350655" lon="14.831824101599">
        <ele>171</ele>
        <time>2019-11-12T18:12:56Z</time>
      </trkpt>
      <trkpt lat="56.900815900627" lon="14.832143619627">
        <ele>170.6</ele>
        <time>2019-11-12T18:13:02Z</time>
      </trkpt>
      <trkpt lat="56.900897624152" lon="14.832460120171">
        <ele>170.6</ele>
        <time>2019-11-12T18:13:09Z</time>
      </trkpt>
      <trkpt lat="56.900945317163" lon="14.832823643174">
        <ele>170.2</ele>
        <time>2019-11-12T18:13:17Z</time>
      </trkpt>
      <trkpt lat="56.901016982408" lon="14.833179119553">
        <ele>170.2</ele>
        <time>2019-11-12T18:13:24Z</time>
      </trkpt>
      <trkpt lat="56.901092922422" lon="14.833482292876">
        <ele>170.6</ele>
        <time>2019-11-12T18:13:31Z</time>
      </trkpt>
      <trkpt lat="56.901087390368" lon="14.833819245256">
        <ele>171.2</ele>
        <time>2019-11-12T18:13:40Z</time>
      </trkpt>
      <trkpt lat="56.901080181934" lon="14.833836931065">
        <ele>171.4</ele>
        <time>2019-11-12T18:13:41Z</time>
      </trkpt>
      <trkpt lat="56.901082361228" lon="14.83386081948">
        <ele>171.4</ele>
        <time>2019-11-12T18:13:42Z</time>
      </trkpt>
      <trkpt lat="56.900964679352" lon="14.834056453026">
        <ele>171</ele>
        <time>2019-11-12T18:24:20Z</time>
      </trkpt>
      <trkpt lat="56.9008718079" lon="14.834164830993">
        <ele>172.4</ele>
        <time>2019-11-12T18:24:26Z</time>
      </trkpt>
      <trkpt lat="56.900695788" lon="14.834351076811">
        <ele>172.6</ele>
        <time>2019-11-12T18:24:32Z</time>
      </trkpt>
      <trkpt lat="56.900498478074" lon="14.834513853309">
        <ele>172.2</ele>
        <time>2019-11-12T18:24:37Z</time>
      </trkpt>
      <trkpt lat="56.900458244954" lon="14.83455400261">
        <ele>172</ele>
        <time>2019-11-12T18:24:38Z</time>
      </trkpt>
      <trkpt lat="56.900419352938" lon="14.834594487187">
        <ele>171.4</ele>
        <time>2019-11-12T18:24:39Z</time>
      </trkpt>
      <trkpt lat="56.90037979037" lon="14.834627176597">
        <ele>171</ele>
        <time>2019-11-12T18:24:40Z</time>
      </trkpt>
      <trkpt lat="56.900204524841" lon="14.834733710546">
        <ele>170.8</ele>
        <time>2019-11-12T18:24:44Z</time>
      </trkpt>
      <trkpt lat="56.900007717829" lon="14.834877292493">
        <ele>171.6</ele>
        <time>2019-11-12T18:24:49Z</time>
      </trkpt>
      <trkpt lat="56.899832787576" lon="14.835097233549">
        <ele>171.2</ele>
        <time>2019-11-12T18:24:54Z</time>
      </trkpt>
      <trkpt lat="56.89976623529" lon="14.835195804693">
        <ele>170</ele>
        <time>2019-11-12T18:24:56Z</time>
      </trkpt>
      <trkpt lat="56.899627179569" lon="14.835403256718">
        <ele>171.2</ele>
        <time>2019-11-12T18:25:01Z</time>
      </trkpt>
      <trkpt lat="56.89946951603" lon="14.835575504763">
        <ele>170.4</ele>
        <time>2019-11-12T18:25:06Z</time>
      </trkpt>
      <trkpt lat="56.899269020982" lon="14.835502079319">
        <ele>171.4</ele>
        <time>2019-11-12T18:25:12Z</time>
      </trkpt>
      <trkpt lat="56.899139688265" lon="14.835270906517">
        <ele>171.4</ele>
        <time>2019-11-12T18:25:17Z</time>
      </trkpt>
      <trkpt lat="56.899049750478" lon="14.835082146129">
        <ele>171.6</ele>
        <time>2019-11-12T18:25:20Z</time>
      </trkpt>
      <trkpt lat="56.898857134416" lon="14.834907215876">
        <ele>171.8</ele>
        <time>2019-11-12T18:25:25Z</time>
      </trkpt>
      <trkpt lat="56.898761748394" lon="14.834873855914">
        <ele>172.2</ele>
        <time>2019-11-12T18:25:28Z</time>
      </trkpt>
      <trkpt lat="56.898606431787" lon="14.834869664964">
        <ele>173</ele>
        <time>2019-11-12T18:25:33Z</time>
      </trkpt>
      <trkpt lat="56.898574496748" lon="14.834884584746">
        <ele>173.4</ele>
        <time>2019-11-12T18:25:34Z</time>
      </trkpt>
      <trkpt lat="56.898518757113" lon="14.834918112346">
        <ele>173.8</ele>
        <time>2019-11-12T18:25:36Z</time>
      </trkpt>
      <trkpt lat="56.898343323946" lon="14.835117517747">
        <ele>174.6</ele>
        <time>2019-11-12T18:25:42Z</time>
      </trkpt>
      <trkpt lat="56.89825581691" lon="14.835217765271">
        <ele>175.8</ele>
        <time>2019-11-12T18:25:46Z</time>
      </trkpt>
      <trkpt lat="56.89813008841" lon="14.835354893155">
        <ele>176.8</ele>
        <time>2019-11-12T18:25:50Z</time>
      </trkpt>
      <trkpt lat="56.897949793741" lon="14.835508281925">
        <ele>177</ele>
        <time>2019-11-12T18:25:55Z</time>
      </trkpt>
      <trkpt lat="56.897776204592" lon="14.835596291875">
        <ele>177.4</ele>
        <time>2019-11-12T18:26:00Z</time>
      </trkpt>
      <trkpt lat="56.897684841882" lon="14.835597130065">
        <ele>178</ele>
        <time>2019-11-12T18:26:03Z</time>
      </trkpt>
      <trkpt lat="56.89759029405" lon="14.835610876381">
        <ele>179.2</ele>
        <time>2019-11-12T18:26:07Z</time>
      </trkpt>
      <trkpt lat="56.897633377016" lon="14.835550778158">
        <ele>179.2</ele>
        <time>2019-11-12T18:26:08Z</time>
      </trkpt>
      <trkpt lat="56.897622648184" lon="14.835507611373">
        <ele>178.8</ele>
        <time>2019-11-12T18:26:12Z</time>
      </trkpt>
      <trkpt lat="56.897598340674" lon="14.835480537836">
        <ele>178.4</ele>
        <time>2019-11-12T18:26:20Z</time>
      </trkpt>
      <trkpt lat="56.897631868274" lon="14.835410297514">
        <ele>178.4</ele>
        <time>2019-11-12T18:26:44Z</time>
      </trkpt>
      <trkpt lat="56.897780982275" lon="14.835413482636">
        <ele>178</ele>
        <time>2019-11-12T18:26:54Z</time>
      </trkpt>
      <trkpt lat="56.897931605018" lon="14.835249113577">
        <ele>177</ele>
        <time>2019-11-12T18:27:02Z</time>
      </trkpt>
      <trkpt lat="56.898048364885" lon="14.835117517747">
        <ele>175.8</ele>
        <time>2019-11-12T18:27:08Z</time>
      </trkpt>
      <trkpt lat="56.898141990708" lon="14.835006876667">
        <ele>174.6</ele>
        <time>2019-11-12T18:27:12Z</time>
      </trkpt>
      <trkpt lat="56.898305521577" lon="14.834827587826">
        <ele>173.8</ele>
        <time>2019-11-12T18:27:20Z</time>
      </trkpt>
      <trkpt lat="56.898472489025" lon="14.834739158781">
        <ele>173.4</ele>
        <time>2019-11-12T18:27:27Z</time>
      </trkpt>
      <trkpt lat="56.898683377629" lon="14.834749971432">
        <ele>172.8</ele>
        <time>2019-11-12T18:27:34Z</time>
      </trkpt>
      <trkpt lat="56.898783541334" lon="14.834915011043">
        <ele>172.4</ele>
        <time>2019-11-12T18:27:37Z</time>
      </trkpt>
      <trkpt lat="56.898919998666" lon="14.835132688986">
        <ele>172.4</ele>
        <time>2019-11-12T18:27:40Z</time>
      </trkpt>
      <trkpt lat="56.899084116268" lon="14.83533016655">
        <ele>172.2</ele>
        <time>2019-11-12T18:27:43Z</time>
      </trkpt>
      <trkpt lat="56.899179921385" lon="14.835426726038">
        <ele>171.6</ele>
        <time>2019-11-12T18:27:45Z</time>
      </trkpt>
      <trkpt lat="56.899221495609" lon="14.835453967213">
        <ele>171.2</ele>
        <time>2019-11-12T18:27:46Z</time>
      </trkpt>
      <trkpt lat="56.899261058177" lon="14.835469054633">
        <ele>170.8</ele>
        <time>2019-11-12T18:27:47Z</time>
      </trkpt>
      <trkpt lat="56.89933540563" lon="14.835449860082">
        <ele>170</ele>
        <time>2019-11-12T18:27:49Z</time>
      </trkpt>
      <trkpt lat="56.899535816859" lon="14.835280880978">
        <ele>170</ele>
        <time>2019-11-12T18:27:54Z</time>
      </trkpt>
      <trkpt lat="56.899707729628" lon="14.835045349588">
        <ele>169.6</ele>
        <time>2019-11-12T18:27:59Z</time>
      </trkpt>
      <trkpt lat="56.899821974925" lon="14.834883914194">
        <ele>168.8</ele>
        <time>2019-11-12T18:28:02Z</time>
      </trkpt>
      <trkpt lat="56.900012327874" lon="14.834703535706">
        <ele>169.4</ele>
        <time>2019-11-12T18:28:07Z</time>
      </trkpt>
      <trkpt lat="56.900048956777" lon="14.83467134921">
        <ele>170</ele>
        <time>2019-11-12T18:28:08Z</time>
      </trkpt>
      <trkpt lat="56.900125399705" lon="14.834607143856">
        <ele>170.6</ele>
        <time>2019-11-12T18:28:10Z</time>
      </trkpt>
      <trkpt lat="56.900325978572" lon="14.834486193039">
        <ele>170.4</ele>
        <time>2019-11-12T18:28:15Z</time>
      </trkpt>
      <trkpt lat="56.900366966063" lon="14.834456018199">
        <ele>170.2</ele>
        <time>2019-11-12T18:28:16Z</time>
      </trkpt>
      <trkpt lat="56.900449779235" lon="14.834399188917">
        <ele>169.8</ele>
        <time>2019-11-12T18:28:18Z</time>
      </trkpt>
      <trkpt lat="56.900563940713" lon="14.834310676053">
        <ele>169.6</ele>
        <time>2019-11-12T18:28:21Z</time>
      </trkpt>
      <trkpt lat="56.900622697832" lon="14.834212188728">
        <ele>169.4</ele>
        <time>2019-11-12T18:28:23Z</time>
      </trkpt>
      <trkpt lat="56.900662344219" lon="14.834090902635">
        <ele>169.2</ele>
        <time>2019-11-12T18:28:25Z</time>
      </trkpt>
      <trkpt lat="56.900675503802" lon="14.834026110548">
        <ele>169</ele>
        <time>2019-11-12T18:28:26Z</time>
      </trkpt>
      <trkpt lat="56.900695452724" lon="14.833901974609">
        <ele>168.8</ele>
        <time>2019-11-12T18:28:28Z</time>
      </trkpt>
      <trkpt lat="56.900698637846" lon="14.833558484347">
        <ele>168.4</ele>
        <time>2019-11-12T18:28:33Z</time>
      </trkpt>
      <trkpt lat="56.900634097216" lon="14.833207701832">
        <ele>168.6</ele>
        <time>2019-11-12T18:28:38Z</time>
      </trkpt>
      <trkpt lat="56.900576597382" lon="14.833073842889">
        <ele>168.6</ele>
        <time>2019-11-12T18:28:40Z</time>
      </trkpt>
      <trkpt lat="56.900442989896" lon="14.832802604605">
        <ele>169.2</ele>
        <time>2019-11-12T18:28:45Z</time>
      </trkpt>
      <trkpt lat="56.90037476123" lon="14.832689532774">
        <ele>169.8</ele>
        <time>2019-11-12T18:28:48Z</time>
      </trkpt>
      <trkpt lat="56.900350286082" lon="14.832665895816">
        <ele>170</ele>
        <time>2019-11-12T18:28:49Z</time>
      </trkpt>
      <trkpt lat="56.90015012631" lon="14.832520302213">
        <ele>169.8</ele>
        <time>2019-11-12T18:28:55Z</time>
      </trkpt>
      <trkpt lat="56.900078963979" lon="14.832480739645">
        <ele>169</ele>
        <time>2019-11-12T18:28:57Z</time>
      </trkpt>
      <trkpt lat="56.899903782269" lon="14.832364231235">
        <ele>168.8</ele>
        <time>2019-11-12T18:29:03Z</time>
      </trkpt>
      <trkpt lat="56.899743017427" lon="14.83223221631">
        <ele>170.2</ele>
        <time>2019-11-12T18:29:09Z</time>
      </trkpt>
      <trkpt lat="56.899737569192" lon="14.832216542157">
        <ele>170.4</ele>
        <time>2019-11-12T18:29:10Z</time>
      </trkpt>
      <trkpt lat="56.899727091817" lon="14.832209249904">
        <ele>170.6</ele>
        <time>2019-11-12T18:29:12Z</time>
      </trkpt>
      <trkpt lat="56.899672525648" lon="14.832181421996">
        <ele>170.6</ele>
        <time>2019-11-12T18:29:15Z</time>
      </trkpt>
      <trkpt lat="56.899632292528" lon="14.832162059807">
        <ele>170.4</ele>
        <time>2019-11-12T18:29:20Z</time>
      </trkpt>
      <trkpt lat="56.899607398285" lon="14.832053011288">
        <ele>170.2</ele>
        <time>2019-11-12T18:29:37Z</time>
      </trkpt>
      <trkpt lat="56.899605470448" lon="14.832064997405">
        <ele>170.2</ele>
        <time>2019-11-12T18:29:39Z</time>
      </trkpt>
      <trkpt lat="56.899608236475" lon="14.832084108137">
        <ele>170.2</ele>
        <time>2019-11-12T18:29:44Z</time>
      </trkpt>
      <trkpt lat="56.899533972841" lon="14.831943208398">
        <ele>171.8</ele>
        <time>2019-11-12T18:30:03Z</time>
      </trkpt>
      <trkpt lat="56.899457194637" lon="14.831631066442">
        <ele>172.2</ele>
        <time>2019-11-12T18:30:11Z</time>
      </trkpt>
      <trkpt lat="56.899433306222" lon="14.831513216928">
        <ele>173.2</ele>
        <time>2019-11-12T18:30:14Z</time>
      </trkpt>
      <trkpt lat="56.899419643725" lon="14.831404838961">
        <ele>174.6</ele>
        <time>2019-11-12T18:30:17Z</time>
      </trkpt>
      <trkpt lat="56.899385026478" lon="14.831240386083">
        <ele>175.6</ele>
        <time>2019-11-12T18:30:21Z</time>
      </trkpt>
      <trkpt lat="56.899302129487" lon="14.83093721276">
        <ele>174.8</ele>
        <time>2019-11-12T18:30:30Z</time>
      </trkpt>
      <trkpt lat="56.89929768708" lon="14.830903266065">
        <ele>174.6</ele>
        <time>2019-11-12T18:30:31Z</time>
      </trkpt>
      <trkpt lat="56.899264243299" lon="14.830667650856">
        <ele>173.2</ele>
        <time>2019-11-12T18:30:36Z</time>
      </trkpt>
      <trkpt lat="56.899199451212" lon="14.830479058106">
        <ele>172.2</ele>
        <time>2019-11-12T18:30:40Z</time>
      </trkpt>
      <trkpt lat="56.899173467322" lon="14.830369506673">
        <ele>171.2</ele>
        <time>2019-11-12T18:30:43Z</time>
      </trkpt>
      <trkpt lat="56.899165672155" lon="14.83035802347">
        <ele>170.8</ele>
        <time>2019-11-12T18:30:44Z</time>
      </trkpt>
      <trkpt lat="56.899172042399" lon="14.830392975993">
        <ele>170</ele>
        <time>2019-11-12T18:30:46Z</time>
      </trkpt>
      <trkpt lat="56.899182100679" lon="14.830429101982">
        <ele>170.2</ele>
        <time>2019-11-12T18:30:47Z</time>
      </trkpt>
      <trkpt lat="56.899208922759" lon="14.830616018352">
        <ele>171.2</ele>
        <time>2019-11-12T18:30:51Z</time>
      </trkpt>
      <trkpt lat="56.899216969383" lon="14.830676954765">
        <ele>171.8</ele>
        <time>2019-11-12T18:30:52Z</time>
      </trkpt>
      <trkpt lat="56.899234487554" lon="14.830848867534">
        <ele>172.4</ele>
        <time>2019-11-12T18:30:55Z</time>
      </trkpt>
      <trkpt lat="56.899282264384" lon="14.831008626548">
        <ele>173.4</ele>
        <time>2019-11-12T18:30:58Z</time>
      </trkpt>
      <trkpt lat="56.899317552183" lon="14.831133265401">
        <ele>174.4</ele>
        <time>2019-11-12T18:31:00Z</time>
      </trkpt>
      <trkpt lat="56.899402796106" lon="14.831529561633">
        <ele>175</ele>
        <time>2019-11-12T18:31:05Z</time>
      </trkpt>
      <trkpt lat="56.899524585113" lon="14.831820916477">
        <ele>174</ele>
        <time>2019-11-12T18:31:08Z</time>
      </trkpt>
      <trkpt lat="56.899603207335" lon="14.83197824474">
        <ele>173</ele>
        <time>2019-11-12T18:31:10Z</time>
      </trkpt>
      <trkpt lat="56.899676381322" lon="14.832084611051">
        <ele>171.6</ele>
        <time>2019-11-12T18:31:12Z</time>
      </trkpt>
      <trkpt lat="56.899757350476" lon="14.832163568549">
        <ele>170.4</ele>
        <time>2019-11-12T18:31:14Z</time>
      </trkpt>
      <trkpt lat="56.89982993773" lon="14.832251075585">
        <ele>169.8</ele>
        <time>2019-11-12T18:31:16Z</time>
      </trkpt>
      <trkpt lat="56.900030935692" lon="14.832387449098">
        <ele>169.6</ele>
        <time>2019-11-12T18:31:22Z</time>
      </trkpt>
      <trkpt lat="56.900105283145" lon="14.832453414651">
        <ele>169.4</ele>
        <time>2019-11-12T18:31:25Z</time>
      </trkpt>
      <trkpt lat="56.90026663472" lon="14.832641420668">
        <ele>169.2</ele>
        <time>2019-11-12T18:31:31Z</time>
      </trkpt>
      <trkpt lat="56.900419101481" lon="14.832877371153">
        <ele>168.8</ele>
        <time>2019-11-12T18:31:35Z</time>
      </trkpt>
      <trkpt lat="56.900549356207" lon="14.833118602235">
        <ele>168.2</ele>
        <time>2019-11-12T18:31:39Z</time>
      </trkpt>
      <trkpt lat="56.900697380561" lon="14.833398054781">
        <ele>167.4</ele>
        <time>2019-11-12T18:31:44Z</time>
      </trkpt>
      <trkpt lat="56.900862336353" lon="14.833643392994">
        <ele>168</ele>
        <time>2019-11-12T18:31:48Z</time>
      </trkpt>
      <trkpt lat="56.900942551136" lon="14.833826621328">
        <ele>168.6</ele>
        <time>2019-11-12T18:31:53Z</time>
      </trkpt>
      <trkpt lat="56.90096987613" lon="14.833828632984">
        <ele>169.2</ele>
        <time>2019-11-12T18:31:55Z</time>
      </trkpt>
      <trkpt lat="56.9009891545" lon="14.833829471174">
        <ele>169.4</ele>
        <time>2019-11-12T18:31:56Z</time>
      </trkpt>
      <trkpt lat="56.900998290771" lon="14.83384489387">
        <ele>169.8</ele>
        <time>2019-11-12T18:31:58Z</time>
      </trkpt>
      <trkpt lat="56.901045061773" lon="14.833836763427">
        <ele>170.2</ele>
        <time>2019-11-12T18:32:02Z</time>
      </trkpt>
      <trkpt lat="56.901090491671" lon="14.833869620475">
        <ele>170.6</ele>
        <time>2019-11-12T18:32:07Z</time>
      </trkpt>
      <trkpt lat="56.901109770041" lon="14.833904908274">
        <ele>170.4</ele>
        <time>2019-11-12T18:32:08Z</time>
      </trkpt>
      <trkpt lat="56.901157882147" lon="14.834003144142">
        <ele>170</ele>
        <time>2019-11-12T18:32:13Z</time>
      </trkpt>
      <trkpt lat="56.901153355921" lon="14.834080676717">
        <ele>169.4</ele>
        <time>2019-11-12T18:32:17Z</time>
      </trkpt>
      <trkpt lat="56.901127623488" lon="14.83408796897">
        <ele>169.4</ele>
        <time>2019-11-12T18:32:20Z</time>
      </trkpt>
      <trkpt lat="56.901115385914" lon="14.834095596499">
        <ele>169.4</ele>
        <time>2019-11-12T18:32:23Z</time>
      </trkpt>
      <trkpt lat="56.901087977101" lon="14.834099033078">
        <ele>169.4</ele>
        <time>2019-11-12T18:32:26Z</time>
      </trkpt>
      <trkpt lat="56.901073476414" lon="14.834110348643">
        <ele>169.4</ele>
        <time>2019-11-12T18:32:28Z</time>
      </trkpt>
      <trkpt lat="56.901041206099" lon="14.834121748027">
        <ele>169.6</ele>
        <time>2019-11-12T18:32:31Z</time>
      </trkpt>
      <trkpt lat="56.901009857793" lon="14.834137170723">
        <ele>169.8</ele>
        <time>2019-11-12T18:32:34Z</time>
      </trkpt>
      <trkpt lat="56.900961745687" lon="14.834144882071">
        <ele>169.8</ele>
        <time>2019-11-12T18:32:42Z</time>
      </trkpt>
      <trkpt lat="56.900867868407" lon="14.834216631135">
        <ele>169.8</ele>
        <time>2019-11-12T18:32:52Z</time>
      </trkpt>
      <trkpt lat="56.900682293141" lon="14.83431344208">
        <ele>170.4</ele>
        <time>2019-11-12T18:32:58Z</time>
      </trkpt>
      <trkpt lat="56.900551032587" lon="14.834387621895">
        <ele>169.2</ele>
        <time>2019-11-12T18:33:02Z</time>
      </trkpt>
      <trkpt lat="56.900360092905" lon="14.834507483065">
        <ele>170</ele>
        <time>2019-11-12T18:33:07Z</time>
      </trkpt>
      <trkpt lat="56.900281554502" lon="14.834553583515">
        <ele>170.2</ele>
        <time>2019-11-12T18:33:09Z</time>
      </trkpt>
      <trkpt lat="56.90011073138" lon="14.834668331726">
        <ele>170</ele>
        <time>2019-11-12T18:33:13Z</time>
      </trkpt>
      <trkpt lat="56.899941165543" lon="14.834823396876">
        <ele>169.6</ele>
        <time>2019-11-12T18:33:17Z</time>
      </trkpt>
      <trkpt lat="56.89979641013" lon="14.835025316847">
        <ele>169.2</ele>
        <time>2019-11-12T18:33:21Z</time>
      </trkpt>
      <trkpt lat="56.899641596437" lon="14.835261015875">
        <ele>168.4</ele>
        <time>2019-11-12T18:33:26Z</time>
      </trkpt>
      <trkpt lat="56.899513688643" lon="14.835417254491">
        <ele>168.8</ele>
        <time>2019-11-12T18:33:30Z</time>
      </trkpt>
      <trkpt lat="56.899333896888" lon="14.83548271713">
        <ele>168.6</ele>
        <time>2019-11-12T18:33:36Z</time>
      </trkpt>
      <trkpt lat="56.899173886417" lon="14.835303260651">
        <ele>169.2</ele>
        <time>2019-11-12T18:33:42Z</time>
      </trkpt>
      <trkpt lat="56.899095096557" lon="14.83511810448">
        <ele>169.8</ele>
        <time>2019-11-12T18:33:45Z</time>
      </trkpt>
      <trkpt lat="56.899064083527" lon="14.835044679036">
        <ele>170</ele>
        <time>2019-11-12T18:33:46Z</time>
      </trkpt>
      <trkpt lat="56.899031310298" lon="14.834999752052">
        <ele>170.4</ele>
        <time>2019-11-12T18:33:47Z</time>
      </trkpt>
      <trkpt lat="56.898867863248" lon="14.834859187589">
        <ele>171.2</ele>
        <time>2019-11-12T18:33:52Z</time>
      </trkpt>
      <trkpt lat="56.898836598761" lon="14.8348482073">
        <ele>171.4</ele>
        <time>2019-11-12T18:33:53Z</time>
      </trkpt>
      <trkpt lat="56.898796784736" lon="14.834852649707">
        <ele>171.6</ele>
        <time>2019-11-12T18:33:54Z</time>
      </trkpt>
      <trkpt lat="56.89860282757" lon="14.834866731299">
        <ele>172.4</ele>
        <time>2019-11-12T18:34:00Z</time>
      </trkpt>
      <trkpt lat="56.898575334938" lon="14.83488089671">
        <ele>172.6</ele>
        <time>2019-11-12T18:34:01Z</time>
      </trkpt>
      <trkpt lat="56.89848212821" lon="14.834964464253">
        <ele>174</ele>
        <time>2019-11-12T18:34:04Z</time>
      </trkpt>
      <trkpt lat="56.898329409992" lon="14.83513989742">
        <ele>174</ele>
        <time>2019-11-12T18:34:09Z</time>
      </trkpt>
      <trkpt lat="56.898141236337" lon="14.835273085811">
        <ele>174.6</ele>
        <time>2019-11-12T18:34:15Z</time>
      </trkpt>
      <trkpt lat="56.898119024302" lon="14.835294208199">
        <ele>175.2</ele>
        <time>2019-11-12T18:34:16Z</time>
      </trkpt>
      <trkpt lat="56.898023805918" lon="14.835389761859">
        <ele>176.4</ele>
        <time>2019-11-12T18:34:19Z</time>
      </trkpt>
      <trkpt lat="56.897843762706" lon="14.83550367188">
        <ele>177.4</ele>
        <time>2019-11-12T18:34:24Z</time>
      </trkpt>
      <trkpt lat="56.897800428283" lon="14.835529236675">
        <ele>177.6</ele>
        <time>2019-11-12T18:34:25Z</time>
      </trkpt>
      <trkpt lat="56.897643770572" lon="14.83561682753">
        <ele>178.6</ele>
        <time>2019-11-12T18:34:31Z</time>
      </trkpt>
      <trkpt lat="56.897568668748" lon="14.835645074533">
        <ele>179.4</ele>
        <time>2019-11-12T18:34:38Z</time>
      </trkpt>
      <trkpt lat="56.897563136694" lon="14.835648511112">
        <ele>179.2</ele>
        <time>2019-11-12T18:34:40Z</time>
      </trkpt>
      <trkpt lat="56.89753748808" lon="14.835515238902">
        <ele>178.8</ele>
        <time>2019-11-12T18:34:49Z</time>
      </trkpt>
      <trkpt lat="56.897518796443" lon="14.835450446815">
        <ele>178.8</ele>
        <time>2019-11-12T18:34:51Z</time>
      </trkpt>
      <trkpt lat="56.897505050127" lon="14.83541650012">
        <ele>179</ele>
        <time>2019-11-12T18:34:53Z</time>
      </trkpt>
      <trkpt lat="56.897614433922" lon="14.835365873444">
        <ele>179</ele>
        <time>2019-11-12T18:35:18Z</time>
      </trkpt>
      <trkpt lat="56.897811324753" lon="14.835387079651">
        <ele>178.2</ele>
        <time>2019-11-12T18:35:25Z</time>
      </trkpt>
      <trkpt lat="56.897924899498" lon="14.835330501826">
        <ele>177.6</ele>
        <time>2019-11-12T18:35:29Z</time>
      </trkpt>
      <trkpt lat="56.898028918877" lon="14.835277109123">
        <ele>176.4</ele>
        <time>2019-11-12T18:35:33Z</time>
      </trkpt>
      <trkpt lat="56.898213655953" lon="14.835150123338">
        <ele>176</ele>
        <time>2019-11-12T18:35:40Z</time>
      </trkpt>
      <trkpt lat="56.898297642591" lon="14.835041996828">
        <ele>175</ele>
        <time>2019-11-12T18:35:44Z</time>
      </trkpt>
      <trkpt lat="56.898418006675" lon="14.834921465106">
        <ele>174</ele>
        <time>2019-11-12T18:35:49Z</time>
      </trkpt>
      <trkpt lat="56.89860366576" lon="14.834778553711">
        <ele>173.8</ele>
        <time>2019-11-12T18:35:57Z</time>
      </trkpt>
      <trkpt lat="56.898784295705" lon="14.834764807395">
        <ele>173.4</ele>
        <time>2019-11-12T18:36:04Z</time>
      </trkpt>
      <trkpt lat="56.898873646759" lon="14.834836556459">
        <ele>172.8</ele>
        <time>2019-11-12T18:36:07Z</time>
      </trkpt>
      <trkpt lat="56.898951346972" lon="14.835043086475">
        <ele>171.6</ele>
        <time>2019-11-12T18:36:10Z</time>
      </trkpt>
      <trkpt lat="56.899063329156" lon="14.835286496851">
        <ele>170.8</ele>
        <time>2019-11-12T18:36:14Z</time>
      </trkpt>
      <trkpt lat="56.899125187578" lon="14.835372411326">
        <ele>170.4</ele>
        <time>2019-11-12T18:36:16Z</time>
      </trkpt>
      <trkpt lat="56.899156452065" lon="14.835407866763">
        <ele>170.6</ele>
        <time>2019-11-12T18:36:17Z</time>
      </trkpt>
      <trkpt lat="56.899362814443" lon="14.835396635017">
        <ele>171.2</ele>
        <time>2019-11-12T18:36:23Z</time>
      </trkpt>
      <trkpt lat="56.899430037281" lon="14.835349528739">
        <ele>171.6</ele>
        <time>2019-11-12T18:36:25Z</time>
      </trkpt>
      <trkpt lat="56.899595915082" lon="14.835184153852">
        <ele>171.4</ele>
        <time>2019-11-12T18:36:30Z</time>
      </trkpt>
      <trkpt lat="56.899739748486" lon="14.834973265248">
        <ele>171</ele>
        <time>2019-11-12T18:36:34Z</time>
      </trkpt>
      <trkpt lat="56.899807055143" lon="14.83488257309">
        <ele>170.4</ele>
        <time>2019-11-12T18:36:36Z</time>
      </trkpt>
      <trkpt lat="56.900025571276" lon="14.834716192375">
        <ele>170.8</ele>
        <time>2019-11-12T18:36:41Z</time>
      </trkpt>
      <trkpt lat="56.900206452678" lon="14.834601695621">
        <ele>170</ele>
        <time>2019-11-12T18:36:45Z</time>
      </trkpt>
      <trkpt lat="56.900245512332" lon="14.83458417745">
        <ele>170.4</ele>
        <time>2019-11-12T18:36:46Z</time>
      </trkpt>
      <trkpt lat="56.900358584163" lon="14.834511674015">
        <ele>170</ele>
        <time>2019-11-12T18:36:49Z</time>
      </trkpt>
      <trkpt lat="56.900394374876" lon="14.834486276858">
        <ele>169</ele>
        <time>2019-11-12T18:36:50Z</time>
      </trkpt>
      <trkpt lat="56.900462016809" lon="14.834438919123">
        <ele>169.6</ele>
        <time>2019-11-12T18:36:52Z</time>
      </trkpt>
      <trkpt lat="56.900552625148" lon="14.834358536702">
        <ele>169</ele>
        <time>2019-11-12T18:36:55Z</time>
      </trkpt>
      <trkpt lat="56.900644490772" lon="14.834169021943">
        <ele>168.4</ele>
        <time>2019-11-12T18:36:59Z</time>
      </trkpt>
      <trkpt lat="56.900701906787" lon="14.833825783138">
        <ele>168</ele>
        <time>2019-11-12T18:37:04Z</time>
      </trkpt>
      <trkpt lat="56.900692519059" lon="14.83347273751">
        <ele>168.6</ele>
        <time>2019-11-12T18:37:09Z</time>
      </trkpt>
      <trkpt lat="56.900592355354" lon="14.833113908371">
        <ele>168.8</ele>
        <time>2019-11-12T18:37:14Z</time>
      </trkpt>
      <trkpt lat="56.900461681533" lon="14.832882819388">
        <ele>168.6</ele>
        <time>2019-11-12T18:37:18Z</time>
      </trkpt>
      <trkpt lat="56.900403930242" lon="14.832793635972">
        <ele>168.4</ele>
        <time>2019-11-12T18:37:20Z</time>
      </trkpt>
      <trkpt lat="56.90034877734" lon="14.832728676247">
        <ele>168.2</ele>
        <time>2019-11-12T18:37:22Z</time>
      </trkpt>
      <trkpt lat="56.900172841259" lon="14.832554500365">
        <ele>169.2</ele>
        <time>2019-11-12T18:37:28Z</time>
      </trkpt>
      <trkpt lat="56.900011154408" lon="14.832424832372">
        <ele>168.8</ele>
        <time>2019-11-12T18:37:34Z</time>
      </trkpt>
      <trkpt lat="56.899831278834" lon="14.832293907094">
        <ele>169.6</ele>
        <time>2019-11-12T18:37:41Z</time>
      </trkpt>
      <trkpt lat="56.899746621644" lon="14.832185445308">
        <ele>170.2</ele>
        <time>2019-11-12T18:37:46Z</time>
      </trkpt>
      <trkpt lat="56.899745196721" lon="14.832177398684">
        <ele>170.4</ele>
        <time>2019-11-12T18:37:47Z</time>
      </trkpt>
      <trkpt lat="56.899731115129" lon="14.832145966559">
        <ele>170.4</ele>
        <time>2019-11-12T18:37:49Z</time>
      </trkpt>
      <trkpt lat="56.899640842066" lon="14.832065835595">
        <ele>170.2</ele>
        <time>2019-11-12T18:37:58Z</time>
      </trkpt>
      <trkpt lat="56.899553083573" lon="14.832032894728">
        <ele>169.6</ele>
        <time>2019-11-12T18:38:03Z</time>
      </trkpt>
      <trkpt lat="56.899545036949" lon="14.832031553624">
        <ele>171.2</ele>
        <time>2019-11-12T18:38:04Z</time>
      </trkpt>
      <trkpt lat="56.899521148534" lon="14.832042366275">
        <ele>169.6</ele>
        <time>2019-11-12T18:38:08Z</time>
      </trkpt>
      <trkpt lat="56.89950974915" lon="14.83206290193">
        <ele>169.4</ele>
        <time>2019-11-12T18:38:12Z</time>
      </trkpt>
      <trkpt lat="56.899512598996" lon="14.832077486436">
        <ele>169.6</ele>
        <time>2019-11-12T18:38:13Z</time>
      </trkpt>
      <trkpt lat="56.899478065568" lon="14.832064075396">
        <ele>169.4</ele>
        <time>2019-11-12T18:38:17Z</time>
      </trkpt>
      <trkpt lat="56.899483513803" lon="14.832071619106">
        <ele>169.2</ele>
        <time>2019-11-12T18:38:23Z</time>
      </trkpt>
      <trkpt lat="56.899488878219" lon="14.832076564427">
        <ele>169.2</ele>
        <time>2019-11-12T18:38:24Z</time>
      </trkpt>
      <trkpt lat="56.899485693097" lon="14.832079078997">
        <ele>169</ele>
        <time>2019-11-12T18:38:25Z</time>
      </trkpt>
      <trkpt lat="56.899470186582" lon="14.832066925242">
        <ele>169.2</ele>
        <time>2019-11-12T18:38:28Z</time>
      </trkpt>
      <trkpt lat="56.899450656755" lon="14.831946896434">
        <ele>170</ele>
        <time>2019-11-12T18:38:33Z</time>
      </trkpt>
      <trkpt lat="56.899450656755" lon="14.831906328038">
        <ele>170.2</ele>
        <time>2019-11-12T18:38:34Z</time>
      </trkpt>
      <trkpt lat="56.899432970946" lon="14.831562586319">
        <ele>171</ele>
        <time>2019-11-12T18:38:42Z</time>
      </trkpt>
      <trkpt lat="56.899438670638" lon="14.831524616312">
        <ele>171.4</ele>
        <time>2019-11-12T18:38:43Z</time>
      </trkpt>
      <trkpt lat="56.899431126928" lon="14.831455633275">
        <ele>172.6</ele>
        <time>2019-11-12T18:38:45Z</time>
      </trkpt>
      <trkpt lat="56.89941251911" lon="14.831349099326">
        <ele>173.6</ele>
        <time>2019-11-12T18:38:48Z</time>
      </trkpt>
      <trkpt lat="56.899347056471" lon="14.831044165804">
        <ele>174</ele>
        <time>2019-11-12T18:38:56Z</time>
      </trkpt>
      <trkpt lat="56.89928259966" lon="14.830691874547">
        <ele>172.8</ele>
        <time>2019-11-12T18:39:04Z</time>
      </trkpt>
      <trkpt lat="56.899272876656" lon="14.830635380541">
        <ele>172.4</ele>
        <time>2019-11-12T18:39:05Z</time>
      </trkpt>
      <trkpt lat="56.899205653818" lon="14.830428012335">
        <ele>171.2</ele>
        <time>2019-11-12T18:39:09Z</time>
      </trkpt>
      <trkpt lat="56.899164833965" lon="14.830328519182">
        <ele>170</ele>
        <time>2019-11-12T18:39:12Z</time>
      </trkpt>
      <trkpt lat="56.899161229748" lon="14.830325166422">
        <ele>169.4</ele>
        <time>2019-11-12T18:39:13Z</time>
      </trkpt>
      <trkpt lat="56.899170533657" lon="14.830402866635">
        <ele>169</ele>
        <time>2019-11-12T18:39:16Z</time>
      </trkpt>
      <trkpt lat="56.899254520295" lon="14.830739316101">
        <ele>170.6</ele>
        <time>2019-11-12T18:39:23Z</time>
      </trkpt>
      <trkpt lat="56.899270278267" lon="14.830790697148">
        <ele>171.2</ele>
        <time>2019-11-12T18:39:24Z</time>
      </trkpt>
      <trkpt lat="56.899304057324" lon="14.830896560545">
        <ele>172.4</ele>
        <time>2019-11-12T18:39:26Z</time>
      </trkpt>
      <trkpt lat="56.899375722569" lon="14.831083393096">
        <ele>173.6</ele>
        <time>2019-11-12T18:39:29Z</time>
      </trkpt>
      <trkpt lat="56.899486196011" lon="14.831354128466">
        <ele>173.8</ele>
        <time>2019-11-12T18:39:33Z</time>
      </trkpt>
      <trkpt lat="56.899564482957" lon="14.831715472175">
        <ele>173.2</ele>
        <time>2019-11-12T18:39:37Z</time>
      </trkpt>
      <trkpt lat="56.899608404113" lon="14.831887804039">
        <ele>172</ele>
        <time>2019-11-12T18:39:39Z</time>
      </trkpt>
      <trkpt lat="56.899630113234" lon="14.831963492596">
        <ele>171.4</ele>
        <time>2019-11-12T18:39:40Z</time>
      </trkpt>
      <trkpt lat="56.899654085468" lon="14.832032643271">
        <ele>170.8</ele>
        <time>2019-11-12T18:39:41Z</time>
      </trkpt>
      <trkpt lat="56.899678728254" lon="14.832085449241">
        <ele>170.2</ele>
        <time>2019-11-12T18:39:42Z</time>
      </trkpt>
      <trkpt lat="56.899727510912" lon="14.83215845559">
        <ele>169.6</ele>
        <time>2019-11-12T18:39:44Z</time>
      </trkpt>
      <trkpt lat="56.899760619417" lon="14.832189803896">
        <ele>169.6</ele>
        <time>2019-11-12T18:39:45Z</time>
      </trkpt>
      <trkpt lat="56.899941836095" lon="14.832319723346">
        <ele>169</ele>
        <time>2019-11-12T18:39:51Z</time>
      </trkpt>
      <trkpt lat="56.900037641212" lon="14.832370936755">
        <ele>168.4</ele>
        <time>2019-11-12T18:39:54Z</time>
      </trkpt>
      <trkpt lat="56.900214247845" lon="14.832532875063">
        <ele>168.8</ele>
        <time>2019-11-12T18:40:01Z</time>
      </trkpt>
      <trkpt lat="56.90036721752" lon="14.832733118654">
        <ele>168.8</ele>
        <time>2019-11-12T18:40:05Z</time>
      </trkpt>
      <trkpt lat="56.900496214961" lon="14.832938139928">
        <ele>168.2</ele>
        <time>2019-11-12T18:40:08Z</time>
      </trkpt>
      <trkpt lat="56.900630157723" lon="14.833196218629">
        <ele>167.8</ele>
        <time>2019-11-12T18:40:12Z</time>
      </trkpt>
      <trkpt lat="56.900764016666" lon="14.833462260135">
        <ele>168.4</ele>
        <time>2019-11-12T18:40:17Z</time>
      </trkpt>
      <trkpt lat="56.900847751847" lon="14.83361355343">
        <ele>167.2</ele>
        <time>2019-11-12T18:40:20Z</time>
      </trkpt>
      <trkpt lat="56.900933247227" lon="14.833795859755">
        <ele>168</ele>
        <time>2019-11-12T18:40:25Z</time>
      </trkpt>
      <trkpt lat="56.900948502285" lon="14.833821173093">
        <ele>168.4</ele>
        <time>2019-11-12T18:40:27Z</time>
      </trkpt>
      <trkpt lat="56.900997117305" lon="14.833848833363">
        <ele>168.8</ele>
        <time>2019-11-12T18:40:29Z</time>
      </trkpt>
      <trkpt lat="56.901037434244" lon="14.833895939641">
        <ele>169</ele>
        <time>2019-11-12T18:40:32Z</time>
      </trkpt>
      <trkpt lat="56.901080098115" lon="14.833959390624">
        <ele>169.4</ele>
        <time>2019-11-12T18:40:37Z</time>
      </trkpt>
      <trkpt lat="56.901044894135" lon="14.834122418579">
        <ele>168.4</ele>
        <time>2019-11-12T18:41:04Z</time>
      </trkpt>
      <trkpt lat="56.900968115931" lon="14.834171955608">
        <ele>169.8</ele>
        <time>2019-11-12T18:41:15Z</time>
      </trkpt>
      <trkpt lat="56.900725208469" lon="14.834311262786">
        <ele>169.4</ele>
        <time>2019-11-12T18:41:32Z</time>
      </trkpt>
      <trkpt lat="56.900526976534" lon="14.834441433693">
        <ele>169.4</ele>
        <time>2019-11-12T18:41:38Z</time>
      </trkpt>
      <trkpt lat="56.900332935549" lon="14.834560456673">
        <ele>169.4</ele>
        <time>2019-11-12T18:41:43Z</time>
      </trkpt>
      <trkpt lat="56.900169488499" lon="14.834651567926">
        <ele>171.2</ele>
        <time>2019-11-12T18:41:47Z</time>
      </trkpt>
      <trkpt lat="56.900127411361" lon="14.834689621752">
        <ele>170</ele>
        <time>2019-11-12T18:41:48Z</time>
      </trkpt>
      <trkpt lat="56.899961785017" lon="14.83482725255">
        <ele>170.4</ele>
        <time>2019-11-12T18:41:52Z</time>
      </trkpt>
      <trkpt lat="56.899780735977" lon="14.835017856956">
        <ele>169.2</ele>
        <time>2019-11-12T18:41:57Z</time>
      </trkpt>
      <trkpt lat="56.899750644956" lon="14.835056497515">
        <ele>169</ele>
        <time>2019-11-12T18:41:58Z</time>
      </trkpt>
      <trkpt lat="56.899572194305" lon="14.835250203224">
        <ele>168.6</ele>
        <time>2019-11-12T18:42:04Z</time>
      </trkpt>
      <trkpt lat="56.899407741427" lon="14.835405519831">
        <ele>168.8</ele>
        <time>2019-11-12T18:42:09Z</time>
      </trkpt>
      <trkpt lat="56.899221244152" lon="14.835364448521">
        <ele>169.2</ele>
        <time>2019-11-12T18:42:15Z</time>
      </trkpt>
      <trkpt lat="56.899094342186" lon="14.83513738285">
        <ele>170.4</ele>
        <time>2019-11-12T18:42:21Z</time>
      </trkpt>
      <trkpt lat="56.898966937306" lon="14.834896319406">
        <ele>171.4</ele>
        <time>2019-11-12T18:42:27Z</time>
      </trkpt>
      <trkpt lat="56.898924189616" lon="14.834885171479">
        <ele>171.2</ele>
        <time>2019-11-12T18:42:28Z</time>
      </trkpt>
      <trkpt lat="56.898887393075" lon="14.834866060747">
        <ele>171.4</ele>
        <time>2019-11-12T18:42:29Z</time>
      </trkpt>
      <trkpt lat="56.898688909683" lon="14.834797580624">
        <ele>172</ele>
        <time>2019-11-12T18:42:34Z</time>
      </trkpt>
      <trkpt lat="56.898654879169" lon="14.834792467665">
        <ele>172.4</ele>
        <time>2019-11-12T18:42:35Z</time>
      </trkpt>
      <trkpt lat="56.898567875047" lon="14.834792300027">
        <ele>174</ele>
        <time>2019-11-12T18:42:38Z</time>
      </trkpt>
      <trkpt lat="56.898532838705" lon="14.834823396876">
        <ele>175.6</ele>
        <time>2019-11-12T18:42:39Z</time>
      </trkpt>
      <trkpt lat="56.89837819265" lon="14.834966308271">
        <ele>176.6</ele>
        <time>2019-11-12T18:42:43Z</time>
      </trkpt>
      <trkpt lat="56.898199909637" lon="14.835149788062">
        <ele>176.6</ele>
        <time>2019-11-12T18:42:48Z</time>
      </trkpt>
      <trkpt lat="56.898039480071" lon="14.835250789957">
        <ele>177.8</ele>
        <time>2019-11-12T18:42:53Z</time>
      </trkpt>
      <trkpt lat="56.897862621981" lon="14.835365873444">
        <ele>178.4</ele>
        <time>2019-11-12T18:42:58Z</time>
      </trkpt>
      <trkpt lat="56.897762206819" lon="14.835435946128">
        <ele>178.8</ele>
        <time>2019-11-12T18:43:01Z</time>
      </trkpt>
      <trkpt lat="56.897647542427" lon="14.835544491733">
        <ele>180</ele>
        <time>2019-11-12T18:43:05Z</time>
      </trkpt>
      <trkpt lat="56.897610326791" lon="14.835579276618">
        <ele>181</ele>
        <time>2019-11-12T18:43:09Z</time>
      </trkpt>
      <trkpt lat="56.897579229942" lon="14.835549101778">
        <ele>180.2</ele>
        <time>2019-11-12T18:43:23Z</time>
      </trkpt>
      <trkpt lat="56.897583756168" lon="14.835515825635">
        <ele>180.4</ele>
        <time>2019-11-12T18:43:27Z</time>
      </trkpt>
      <trkpt lat="56.897573614069" lon="14.83545673324">
        <ele>180</ele>
        <time>2019-11-12T18:43:39Z</time>
      </trkpt>
      <trkpt lat="56.897629353704" lon="14.835464696045">
        <ele>181.2</ele>
        <time>2019-11-12T18:43:46Z</time>
      </trkpt>
      <trkpt lat="56.897658355078" lon="14.835460756552">
        <ele>181</ele>
        <time>2019-11-12T18:43:48Z</time>
      </trkpt>
      <trkpt lat="56.897852563701" lon="14.835451452643">
        <ele>180</ele>
        <time>2019-11-12T18:44:00Z</time>
      </trkpt>
      <trkpt lat="56.897927078792" lon="14.835393366076">
        <ele>179</ele>
        <time>2019-11-12T18:44:04Z</time>
      </trkpt>
      <trkpt lat="56.898115420085" lon="14.835238468564">
        <ele>178.4</ele>
        <time>2019-11-12T18:44:13Z</time>
      </trkpt>
      <trkpt lat="56.898187755882" lon="14.835146435302">
        <ele>177.8</ele>
        <time>2019-11-12T18:44:16Z</time>
      </trkpt>
      <trkpt lat="56.898264366448" lon="14.835036380955">
        <ele>176.6</ele>
        <time>2019-11-12T18:44:20Z</time>
      </trkpt>
      <trkpt lat="56.898405266187" lon="14.834898331062">
        <ele>175.6</ele>
        <time>2019-11-12T18:44:26Z</time>
      </trkpt>
      <trkpt lat="56.898566869219" lon="14.834757431323">
        <ele>175.6</ele>
        <time>2019-11-12T18:44:32Z</time>
      </trkpt>
      <trkpt lat="56.898751690114" lon="14.834734716374">
        <ele>175.2</ele>
        <time>2019-11-12T18:44:41Z</time>
      </trkpt>
      <trkpt lat="56.898924776349" lon="14.83492699716">
        <ele>175</ele>
        <time>2019-11-12T18:44:47Z</time>
      </trkpt>
      <trkpt lat="56.89895822013" lon="14.83499991969">
        <ele>174.6</ele>
        <time>2019-11-12T18:44:48Z</time>
      </trkpt>
      <trkpt lat="56.899025191511" lon="14.835138304859">
        <ele>174.2</ele>
        <time>2019-11-12T18:44:50Z</time>
      </trkpt>
      <trkpt lat="56.899089480684" lon="14.835258166029">
        <ele>173.6</ele>
        <time>2019-11-12T18:44:52Z</time>
      </trkpt>
      <trkpt lat="56.899125439035" lon="14.835307283963">
        <ele>173.4</ele>
        <time>2019-11-12T18:44:53Z</time>
      </trkpt>
      <trkpt lat="56.899250664621" lon="14.835437035775">
        <ele>173</ele>
        <time>2019-11-12T18:44:56Z</time>
      </trkpt>
      <trkpt lat="56.899346721195" lon="14.835460505095">
        <ele>172.8</ele>
        <time>2019-11-12T18:44:58Z</time>
      </trkpt>
      <trkpt lat="56.899427522711" lon="14.835433096282">
        <ele>172.6</ele>
        <time>2019-11-12T18:45:00Z</time>
      </trkpt>
      <trkpt lat="56.899460128302" lon="14.835406693297">
        <ele>172.4</ele>
        <time>2019-11-12T18:45:01Z</time>
      </trkpt>
      <trkpt lat="56.899484854907" lon="14.835373249516">
        <ele>172.4</ele>
        <time>2019-11-12T18:45:02Z</time>
      </trkpt>
      <trkpt lat="56.899642518446" lon="14.835115338453">
        <ele>171.2</ele>
        <time>2019-11-12T18:45:08Z</time>
      </trkpt>
      <trkpt lat="56.899707729628" lon="14.835012995454">
        <ele>169.2</ele>
        <time>2019-11-12T18:45:10Z</time>
      </trkpt>
      <trkpt lat="56.899743101246" lon="14.834969661031">
        <ele>170.8</ele>
        <time>2019-11-12T18:45:11Z</time>
      </trkpt>
      <trkpt lat="56.899779897787" lon="14.834922303296">
        <ele>169.4</ele>
        <time>2019-11-12T18:45:12Z</time>
      </trkpt>
      <trkpt lat="56.899928508874" lon="14.834751312536">
        <ele>169.6</ele>
        <time>2019-11-12T18:45:17Z</time>
      </trkpt>
      <trkpt lat="56.900059937066" lon="14.834641761103">
        <ele>170.8</ele>
        <time>2019-11-12T18:45:21Z</time>
      </trkpt>
      <trkpt lat="56.900261102666" lon="14.834484768116">
        <ele>171</ele>
        <time>2019-11-12T18:45:26Z</time>
      </trkpt>
      <trkpt lat="56.900406780088" lon="14.834362979109">
        <ele>170.6</ele>
        <time>2019-11-12T18:45:30Z</time>
      </trkpt>
      <trkpt lat="56.900473583831" lon="14.834283770154">
        <ele>170.4</ele>
        <time>2019-11-12T18:45:32Z</time>
      </trkpt>
      <trkpt lat="56.900551284044" lon="14.834109258996">
        <ele>170.2</ele>
        <time>2019-11-12T18:45:35Z</time>
      </trkpt>
      <trkpt lat="56.900595791933" lon="14.833977495528">
        <ele>170</ele>
        <time>2019-11-12T18:45:37Z</time>
      </trkpt>
      <trkpt lat="56.900649184636" lon="14.833697540068">
        <ele>169.6</ele>
        <time>2019-11-12T18:45:41Z</time>
      </trkpt>
      <trkpt lat="56.900655303423" lon="14.833464271791">
        <ele>169.8</ele>
        <time>2019-11-12T18:45:44Z</time>
      </trkpt>
      <trkpt lat="56.900662763314" lon="14.833326221898">
        <ele>169.2</ele>
        <time>2019-11-12T18:45:46Z</time>
      </trkpt>
      <trkpt lat="56.900627391696" lon="14.833143580297">
        <ele>168.6</ele>
        <time>2019-11-12T18:45:49Z</time>
      </trkpt>
      <trkpt lat="56.900492359287" lon="14.832908048907">
        <ele>168.2</ele>
        <time>2019-11-12T18:45:53Z</time>
      </trkpt>
      <trkpt lat="56.900434105082" lon="14.832807382288">
        <ele>168.4</ele>
        <time>2019-11-12T18:45:55Z</time>
      </trkpt>
      <trkpt lat="56.90032363164" lon="14.832696070656">
        <ele>168.8</ele>
        <time>2019-11-12T18:45:59Z</time>
      </trkpt>
      <trkpt lat="56.900151551233" lon="14.832562882265">
        <ele>169.4</ele>
        <time>2019-11-12T18:46:04Z</time>
      </trkpt>
      <trkpt lat="56.899981733939" lon="14.832457940877">
        <ele>169.2</ele>
        <time>2019-11-12T18:46:09Z</time>
      </trkpt>
      <trkpt lat="56.899875619085" lon="14.832360207923">
        <ele>169.6</ele>
        <time>2019-11-12T18:46:13Z</time>
      </trkpt>
      <trkpt lat="56.899702784307" lon="14.832217547985">
        <ele>170.4</ele>
        <time>2019-11-12T18:46:19Z</time>
      </trkpt>
      <trkpt lat="56.899685433774" lon="14.832205561868">
        <ele>170.6</ele>
        <time>2019-11-12T18:46:20Z</time>
      </trkpt>
      <trkpt lat="56.899675124037" lon="14.832199023986">
        <ele>171.2</ele>
        <time>2019-11-12T18:46:22Z</time>
      </trkpt>
      <trkpt lat="56.899636232021" lon="14.832128699845">
        <ele>171.4</ele>
        <time>2019-11-12T18:46:30Z</time>
      </trkpt>
      <trkpt lat="56.899574457418" lon="14.831974975799">
        <ele>171.6</ele>
        <time>2019-11-12T18:47:05Z</time>
      </trkpt>
      <trkpt lat="56.899517125222" lon="14.831670209915">
        <ele>172.6</ele>
        <time>2019-11-12T18:47:13Z</time>
      </trkpt>
      <trkpt lat="56.899492314798" lon="14.831498129508">
        <ele>174</ele>
        <time>2019-11-12T18:47:18Z</time>
      </trkpt>
      <trkpt lat="56.899480663957" lon="14.831392182292">
        <ele>175.4</ele>
        <time>2019-11-12T18:47:21Z</time>
      </trkpt>
      <trkpt lat="56.899433809136" lon="14.831192190158">
        <ele>176.4</ele>
        <time>2019-11-12T18:47:26Z</time>
      </trkpt>
      <trkpt lat="56.899340099494" lon="14.830885747894">
        <ele>175.8</ele>
        <time>2019-11-12T18:47:34Z</time>
      </trkpt>
      <trkpt lat="56.899309086464" lon="14.830680475163">
        <ele>174.4</ele>
        <time>2019-11-12T18:47:39Z</time>
      </trkpt>
      <trkpt lat="56.899297519442" lon="14.83063881712">
        <ele>173.8</ele>
        <time>2019-11-12T18:47:40Z</time>
      </trkpt>
      <trkpt lat="56.899276816149" lon="14.830575533775">
        <ele>173.4</ele>
        <time>2019-11-12T18:47:42Z</time>
      </trkpt>
      <trkpt lat="56.899207665474" lon="14.830400100608">
        <ele>172.2</ele>
        <time>2019-11-12T18:47:47Z</time>
      </trkpt>
      <trkpt lat="56.899193416244" lon="14.8303722727">
        <ele>171.2</ele>
        <time>2019-11-12T18:47:49Z</time>
      </trkpt>
      <trkpt lat="56.899195511719" lon="14.83038652193">
        <ele>171</ele>
        <time>2019-11-12T18:47:50Z</time>
      </trkpt>
      <trkpt lat="56.899226357111" lon="14.83048459016">
        <ele>170.8</ele>
        <time>2019-11-12T18:47:53Z</time>
      </trkpt>
      <trkpt lat="56.899298106175" lon="14.830708135433">
        <ele>172.2</ele>
        <time>2019-11-12T18:47:57Z</time>
      </trkpt>
      <trkpt lat="56.899336327639" lon="14.830830678811">
        <ele>173.2</ele>
        <time>2019-11-12T18:47:59Z</time>
      </trkpt>
      <trkpt lat="56.899402628468" lon="14.83105036841">
        <ele>174.4</ele>
        <time>2019-11-12T18:48:03Z</time>
      </trkpt>
      <trkpt lat="56.899502456897" lon="14.83128170885">
        <ele>175.6</ele>
        <time>2019-11-12T18:48:07Z</time>
      </trkpt>
      <trkpt lat="56.899565824061" lon="14.83150047644">
        <ele>176.8</ele>
        <time>2019-11-12T18:48:10Z</time>
      </trkpt>
      <trkpt lat="56.89965140326" lon="14.83185251624">
        <ele>176</ele>
        <time>2019-11-12T18:48:14Z</time>
      </trkpt>
      <trkpt lat="56.899673615295" lon="14.83192795334">
        <ele>175.4</ele>
        <time>2019-11-12T18:48:15Z</time>
      </trkpt>
      <trkpt lat="56.899700353556" lon="14.83200171406">
        <ele>174.4</ele>
        <time>2019-11-12T18:48:16Z</time>
      </trkpt>
      <trkpt lat="56.899726756541" lon="14.832059884446">
        <ele>173.8</ele>
        <time>2019-11-12T18:48:17Z</time>
      </trkpt>
      <trkpt lat="56.899758523942" lon="14.832105481982">
        <ele>173.2</ele>
        <time>2019-11-12T18:48:18Z</time>
      </trkpt>
      <trkpt lat="56.899820633821" lon="14.832182344005">
        <ele>172.4</ele>
        <time>2019-11-12T18:48:20Z</time>
      </trkpt>
      <trkpt lat="56.899882156967" lon="14.832256775277">
        <ele>171.6</ele>
        <time>2019-11-12T18:48:22Z</time>
      </trkpt>
      <trkpt lat="56.900071168812" lon="14.83242416182">
        <ele>171.4</ele>
        <time>2019-11-12T18:48:28Z</time>
      </trkpt>
      <trkpt lat="56.900196645855" lon="14.83250630444">
        <ele>170.4</ele>
        <time>2019-11-12T18:48:32Z</time>
      </trkpt>
      <trkpt lat="56.900381131474" lon="14.832700010149">
        <ele>170.4</ele>
        <time>2019-11-12T18:48:38Z</time>
      </trkpt>
      <trkpt lat="56.900508284897" lon="14.832930763856">
        <ele>170</ele>
        <time>2019-11-12T18:48:42Z</time>
      </trkpt>
      <trkpt lat="56.900541812497" lon="14.833000333626">
        <ele>169.4</ele>
        <time>2019-11-12T18:48:43Z</time>
      </trkpt>
      <trkpt lat="56.900665529341" lon="14.833239050138">
        <ele>169.6</ele>
        <time>2019-11-12T18:48:47Z</time>
      </trkpt>
      <trkpt lat="56.900800226474" lon="14.833515988114">
        <ele>170.2</ele>
        <time>2019-11-12T18:48:52Z</time>
      </trkpt>
      <trkpt lat="56.900942802593" lon="14.833777922489">
        <ele>169.8</ele>
        <time>2019-11-12T18:48:58Z</time>
      </trkpt>
      <trkpt lat="56.900982281342" lon="14.833836009056">
        <ele>170.4</ele>
        <time>2019-11-12T18:49:00Z</time>
      </trkpt>
      <trkpt lat="56.900989657414" lon="14.833842463119">
        <ele>170.6</ele>
        <time>2019-11-12T18:49:01Z</time>
      </trkpt>
      <trkpt lat="56.901005666843" lon="14.833866519172">
        <ele>170.8</ele>
        <time>2019-11-12T18:49:03Z</time>
      </trkpt>
      <trkpt lat="56.901043133936" lon="14.833907087568">
        <ele>171</ele>
        <time>2019-11-12T18:49:06Z</time>
      </trkpt>
      <trkpt lat="56.901006588852" lon="14.834123759683">
        <ele>170.6</ele>
        <time>2019-11-12T18:49:36Z</time>
      </trkpt>
      <trkpt lat="56.901004074282" lon="14.834132895954">
        <ele>170.6</ele>
        <time>2019-11-12T18:49:37Z</time>
      </trkpt>
      <trkpt lat="56.900995273287" lon="14.834138176551">
        <ele>170.6</ele>
        <time>2019-11-12T18:49:39Z</time>
      </trkpt>
      <trkpt lat="56.900970462863" lon="14.834129207918">
        <ele>170.6</ele>
        <time>2019-11-12T18:49:42Z</time>
      </trkpt>
      <trkpt lat="56.900769297263" lon="14.834248482355">
        <ele>170.2</ele>
        <time>2019-11-12T18:50:05Z</time>
      </trkpt>
      <trkpt lat="56.900580285418" lon="14.834326098749">
        <ele>170.6</ele>
        <time>2019-11-12T18:50:10Z</time>
      </trkpt>
      <trkpt lat="56.900465788664" lon="14.834381922203">
        <ele>170.2</ele>
        <time>2019-11-12T18:50:13Z</time>
      </trkpt>
      <trkpt lat="56.900279961941" lon="14.834497173328">
        <ele>170.2</ele>
        <time>2019-11-12T18:50:18Z</time>
      </trkpt>
      <trkpt lat="56.900074940667" lon="14.834620806353">
        <ele>170.4</ele>
        <time>2019-11-12T18:50:23Z</time>
      </trkpt>
      <trkpt lat="56.900034539909" lon="14.834657435256">
        <ele>170.4</ele>
        <time>2019-11-12T18:50:24Z</time>
      </trkpt>
      <trkpt lat="56.899959940999" lon="14.834722897895">
        <ele>169.8</ele>
        <time>2019-11-12T18:50:26Z</time>
      </trkpt>
      <trkpt lat="56.899845360426" lon="14.834823229238">
        <ele>169.2</ele>
        <time>2019-11-12T18:50:29Z</time>
      </trkpt>
      <trkpt lat="56.899707981085" lon="14.835017354042">
        <ele>169.8</ele>
        <time>2019-11-12T18:50:34Z</time>
      </trkpt>
      <trkpt lat="56.899655175115" lon="14.835099496662">
        <ele>169.8</ele>
        <time>2019-11-12T18:50:36Z</time>
      </trkpt>
      <trkpt lat="56.89949801449" lon="14.835272415259">
        <ele>169.6</ele>
        <time>2019-11-12T18:50:41Z</time>
      </trkpt>
      <trkpt lat="56.899318222735" lon="14.835393449895">
        <ele>169.8</ele>
        <time>2019-11-12T18:50:46Z</time>
      </trkpt>
      <trkpt lat="56.899142370473" lon="14.835325305048">
        <ele>170.4</ele>
        <time>2019-11-12T18:50:51Z</time>
      </trkpt>
      <trkpt lat="56.89907724311" lon="14.835217262357">
        <ele>171.2</ele>
        <time>2019-11-12T18:50:55Z</time>
      </trkpt>
      <trkpt lat="56.898959309777" lon="14.83492951173">
        <ele>171.4</ele>
        <time>2019-11-12T18:51:01Z</time>
      </trkpt>
      <trkpt lat="56.898905749436" lon="14.834883662737">
        <ele>171.6</ele>
        <time>2019-11-12T18:51:03Z</time>
      </trkpt>
      <trkpt lat="56.8986925139" lon="14.834807638904">
        <ele>171.8</ele>
        <time>2019-11-12T18:51:08Z</time>
      </trkpt>
      <trkpt lat="56.898621519207" lon="14.834812332768">
        <ele>173.2</ele>
        <time>2019-11-12T18:51:10Z</time>
      </trkpt>
      <trkpt lat="56.898425047471" lon="14.834873855914">
        <ele>172.4</ele>
        <time>2019-11-12T18:51:17Z</time>
      </trkpt>
      <trkpt lat="56.898259421127" lon="14.835048869986">
        <ele>173</ele>
        <time>2019-11-12T18:51:23Z</time>
      </trkpt>
      <trkpt lat="56.898151210798" lon="14.835181136368">
        <ele>174.4</ele>
        <time>2019-11-12T18:51:28Z</time>
      </trkpt>
      <trkpt lat="56.897984913902" lon="14.835394288085">
        <ele>175.2</ele>
        <time>2019-11-12T18:51:33Z</time>
      </trkpt>
      <trkpt lat="56.897864046904" lon="14.835493194505">
        <ele>175.4</ele>
        <time>2019-11-12T18:51:37Z</time>
      </trkpt>
      <trkpt lat="56.897700180759" lon="14.83555983061">
        <ele>176.6</ele>
        <time>2019-11-12T18:51:43Z</time>
      </trkpt>
      <trkpt lat="56.897594149724" lon="14.835586568871">
        <ele>177.4</ele>
        <time>2019-11-12T18:51:47Z</time>
      </trkpt>
      <trkpt lat="56.897586186919" lon="14.835588915803">
        <ele>177.8</ele>
        <time>2019-11-12T18:51:49Z</time>
      </trkpt>
      <trkpt lat="56.897517622977" lon="14.835566117035">
        <ele>178.2</ele>
        <time>2019-11-12T18:51:57Z</time>
      </trkpt>
      <trkpt lat="56.897514940769" lon="14.835535942195">
        <ele>178.2</ele>
        <time>2019-11-12T18:52:01Z</time>
      </trkpt>
      <trkpt lat="56.89752491523" lon="14.835523034069">
        <ele>178</ele>
        <time>2019-11-12T18:52:03Z</time>
      </trkpt>
      <trkpt lat="56.897512426199" lon="14.835503085147">
        <ele>177.8</ele>
        <time>2019-11-12T18:52:06Z</time>
      </trkpt>
      <trkpt lat="56.897492812553" lon="14.835500738215">
        <ele>177.4</ele>
        <time>2019-11-12T18:52:09Z</time>
      </trkpt>
      <trkpt lat="56.897626671496" lon="14.835513478703">
        <ele>178</ele>
        <time>2019-11-12T18:52:37Z</time>
      </trkpt>
      <trkpt lat="56.897819790472" lon="14.835459918362">
        <ele>176.8</ele>
        <time>2019-11-12T18:52:43Z</time>
      </trkpt>
      <trkpt lat="56.897852982796" lon="14.835442986924">
        <ele>176.6</ele>
        <time>2019-11-12T18:52:44Z</time>
      </trkpt>
      <trkpt lat="56.89794317204" lon="14.835359670838">
        <ele>175.6</ele>
        <time>2019-11-12T18:52:47Z</time>
      </trkpt>
      <trkpt lat="56.898115420085" lon="14.835212233217">
        <ele>175</ele>
        <time>2019-11-12T18:52:53Z</time>
      </trkpt>
      <trkpt lat="56.8981644542" lon="14.835157247953">
        <ele>174.6</ele>
        <time>2019-11-12T18:52:55Z</time>
      </trkpt>
      <trkpt lat="56.898273335081" lon="14.835008720685">
        <ele>173.2</ele>
        <time>2019-11-12T18:52:59Z</time>
      </trkpt>
      <trkpt lat="56.898457233967" lon="14.834860696331">
        <ele>172.4</ele>
        <time>2019-11-12T18:53:06Z</time>
      </trkpt>
      <trkpt lat="56.898652196961" lon="14.83480965056">
        <ele>172.2</ele>
        <time>2019-11-12T18:53:13Z</time>
      </trkpt>
      <trkpt lat="56.898675247186" lon="14.834804034687">
        <ele>172</ele>
        <time>2019-11-12T18:53:14Z</time>
      </trkpt>
      <trkpt lat="56.898855541855" lon="14.834868659136">
        <ele>171.4</ele>
        <time>2019-11-12T18:53:20Z</time>
      </trkpt>
      <trkpt lat="56.898931649507" lon="14.834981563329">
        <ele>171</ele>
        <time>2019-11-12T18:53:22Z</time>
      </trkpt>
      <trkpt lat="56.898987975875" lon="14.835104274345">
        <ele>170.6</ele>
        <time>2019-11-12T18:53:24Z</time>
      </trkpt>
      <trkpt lat="56.899109010511" lon="14.835305942859">
        <ele>170</ele>
        <time>2019-11-12T18:53:28Z</time>
      </trkpt>
      <trkpt lat="56.899144885043" lon="14.835348439092">
        <ele>169.8</ele>
        <time>2019-11-12T18:53:29Z</time>
      </trkpt>
      <trkpt lat="56.899189644389" lon="14.835388253117">
        <ele>169.8</ele>
        <time>2019-11-12T18:53:30Z</time>
      </trkpt>
      <trkpt lat="56.899275475045" lon="14.835419098509">
        <ele>169.6</ele>
        <time>2019-11-12T18:53:32Z</time>
      </trkpt>
      <trkpt lat="56.899440095561" lon="14.835370734946">
        <ele>169.4</ele>
        <time>2019-11-12T18:53:36Z</time>
      </trkpt>
      <trkpt lat="56.899604213163" lon="14.835215502158">
        <ele>169.2</ele>
        <time>2019-11-12T18:53:41Z</time>
      </trkpt>
      <trkpt lat="56.8996312867" lon="14.835182393653">
        <ele>169.6</ele>
        <time>2019-11-12T18:53:42Z</time>
      </trkpt>
      <trkpt lat="56.899807558057" lon="14.834975193085">
        <ele>168.6</ele>
        <time>2019-11-12T18:53:47Z</time>
      </trkpt>
      <trkpt lat="56.899871092859" lon="14.83491190974">
        <ele>168.4</ele>
        <time>2019-11-12T18:53:49Z</time>
      </trkpt>
      <trkpt lat="56.900043424723" lon="14.834792719122">
        <ele>169</ele>
        <time>2019-11-12T18:53:54Z</time>
      </trkpt>
      <trkpt lat="56.900174601458" lon="14.834704792991">
        <ele>170.4</ele>
        <time>2019-11-12T18:53:58Z</time>
      </trkpt>
      <trkpt lat="56.900369648271" lon="14.834612172996">
        <ele>170.8</ele>
        <time>2019-11-12T18:54:03Z</time>
      </trkpt>
      <trkpt lat="56.900544997619" lon="14.834495999862">
        <ele>169.8</ele>
        <time>2019-11-12T18:54:07Z</time>
      </trkpt>
      <trkpt lat="56.900619931805" lon="14.834401619668">
        <ele>169.2</ele>
        <time>2019-11-12T18:54:09Z</time>
      </trkpt>
      <trkpt lat="56.900669971748" lon="14.834285195077">
        <ele>169</ele>
        <time>2019-11-12T18:54:11Z</time>
      </trkpt>
      <trkpt lat="56.900708444669" lon="14.834144462976">
        <ele>168.2</ele>
        <time>2019-11-12T18:54:13Z</time>
      </trkpt>
      <trkpt lat="56.900757897879" lon="14.833786555846">
        <ele>168</ele>
        <time>2019-11-12T18:54:18Z</time>
      </trkpt>
      <trkpt lat="56.900703834624" lon="14.833395707849">
        <ele>167.6</ele>
        <time>2019-11-12T18:54:23Z</time>
      </trkpt>
      <trkpt lat="56.900681874046" lon="14.833323288233">
        <ele>167.8</ele>
        <time>2019-11-12T18:54:24Z</time>
      </trkpt>
      <trkpt lat="56.900626134411" lon="14.833198397923">
        <ele>167.6</ele>
        <time>2019-11-12T18:54:26Z</time>
      </trkpt>
      <trkpt lat="56.900532508588" lon="14.83303352595">
        <ele>167.2</ele>
        <time>2019-11-12T18:54:29Z</time>
      </trkpt>
      <trkpt lat="56.900373503945" lon="14.832796653456">
        <ele>167.8</ele>
        <time>2019-11-12T18:54:34Z</time>
      </trkpt>
      <trkpt lat="56.900301503424" lon="14.832721467813">
        <ele>168</ele>
        <time>2019-11-12T18:54:37Z</time>
      </trkpt>
      <trkpt lat="56.900275938629" lon="14.832697495579">
        <ele>168.4</ele>
        <time>2019-11-12T18:54:38Z</time>
      </trkpt>
      <trkpt lat="56.900070833536" lon="14.832571767079">
        <ele>169</ele>
        <time>2019-11-12T18:54:43Z</time>
      </trkpt>
      <trkpt lat="56.89989280198" lon="14.83245266028">
        <ele>168.8</ele>
        <time>2019-11-12T18:54:49Z</time>
      </trkpt>
      <trkpt lat="56.899792554456" lon="14.83237303223">
        <ele>169.8</ele>
        <time>2019-11-12T18:54:53Z</time>
      </trkpt>
      <trkpt lat="56.899633549813" lon="14.832229450283">
        <ele>170.2</ele>
        <time>2019-11-12T18:55:00Z</time>
      </trkpt>
      <trkpt lat="56.899584599517" lon="14.832177901598">
        <ele>170.6</ele>
        <time>2019-11-12T18:55:15Z</time>
      </trkpt>
      <trkpt lat="56.899542270922" lon="14.83213833903">
        <ele>170.6</ele>
        <time>2019-11-12T18:55:19Z</time>
      </trkpt>
      <trkpt lat="56.899481921242" lon="14.832071451468">
        <ele>170.6</ele>
        <time>2019-11-12T18:55:24Z</time>
      </trkpt>
      <trkpt lat="56.899476473007" lon="14.832067428156">
        <ele>170.4</ele>
        <time>2019-11-12T18:55:25Z</time>
      </trkpt>
      <trkpt lat="56.899454847705" lon="14.832059465351">
        <ele>170.4</ele>
        <time>2019-11-12T18:55:28Z</time>
      </trkpt>
      <trkpt lat="56.899438670638" lon="14.832045635216">
        <ele>170.6</ele>
        <time>2019-11-12T18:55:31Z</time>
      </trkpt>
      <trkpt lat="56.899415704232" lon="14.831996936377">
        <ele>170.8</ele>
        <time>2019-11-12T18:55:34Z</time>
      </trkpt>
      <trkpt lat="56.899408831074" lon="14.831968270279">
        <ele>170.8</ele>
        <time>2019-11-12T18:55:35Z</time>
      </trkpt>
      <trkpt lat="56.899386954315" lon="14.83169912747">
        <ele>171.8</ele>
        <time>2019-11-12T18:55:42Z</time>
      </trkpt>
      <trkpt lat="56.899384607383" lon="14.83152394576">
        <ele>172.8</ele>
        <time>2019-11-12T18:55:47Z</time>
      </trkpt>
      <trkpt lat="56.89938737341" lon="14.831403414038">
        <ele>174.2</ele>
        <time>2019-11-12T18:55:51Z</time>
      </trkpt>
      <trkpt lat="56.899361221882" lon="14.831245331404">
        <ele>175.4</ele>
        <time>2019-11-12T18:55:55Z</time>
      </trkpt>
      <trkpt lat="56.899291903569" lon="14.830937045122">
        <ele>175.8</ele>
        <time>2019-11-12T18:56:03Z</time>
      </trkpt>
      <trkpt lat="56.899231218613" lon="14.830616269809">
        <ele>173.8</ele>
        <time>2019-11-12T18:56:10Z</time>
      </trkpt>
      <trkpt lat="56.899206072913" lon="14.830519542683">
        <ele>172.8</ele>
        <time>2019-11-12T18:56:12Z</time>
      </trkpt>
      <trkpt lat="56.899148908355" lon="14.830330614657">
        <ele>171.6</ele>
        <time>2019-11-12T18:56:17Z</time>
      </trkpt>
      <trkpt lat="56.899132312193" lon="14.830310079002">
        <ele>171.2</ele>
        <time>2019-11-12T18:56:19Z</time>
      </trkpt>
      <trkpt lat="56.89917363496" lon="14.830428682887">
        <ele>169.2</ele>
        <time>2019-11-12T18:56:22Z</time>
      </trkpt>
      <trkpt lat="56.899229123138" lon="14.830605373339">
        <ele>171.4</ele>
        <time>2019-11-12T18:56:25Z</time>
      </trkpt>
      <trkpt lat="56.899341775874" lon="14.830921957702">
        <ele>171.8</ele>
        <time>2019-11-12T18:56:31Z</time>
      </trkpt>
      <trkpt lat="56.899395839129" lon="14.831031760592">
        <ele>172.6</ele>
        <time>2019-11-12T18:56:33Z</time>
      </trkpt>
      <trkpt lat="56.89946113413" lon="14.83118280243">
        <ele>173.6</ele>
        <time>2019-11-12T18:56:36Z</time>
      </trkpt>
      <trkpt lat="56.899557777437" lon="14.831527130882">
        <ele>173.4</ele>
        <time>2019-11-12T18:56:41Z</time>
      </trkpt>
      <trkpt lat="56.899642099351" lon="14.831847738557">
        <ele>172.4</ele>
        <time>2019-11-12T18:56:45Z</time>
      </trkpt>
      <trkpt lat="56.899686774878" lon="14.831986123726">
        <ele>171</ele>
        <time>2019-11-12T18:56:47Z</time>
      </trkpt>
      <trkpt lat="56.899778389045" lon="14.832154599916">
        <ele>169.8</ele>
        <time>2019-11-12T18:56:50Z</time>
      </trkpt>
      <trkpt lat="56.899808396247" lon="14.832197766701">
        <ele>169.6</ele>
        <time>2019-11-12T18:56:51Z</time>
      </trkpt>
      <trkpt lat="56.899865728443" lon="14.832271359783">
        <ele>169.8</ele>
        <time>2019-11-12T18:56:53Z</time>
      </trkpt>
      <trkpt lat="56.899897244387" lon="14.832301534623">
        <ele>168.4</ele>
        <time>2019-11-12T18:56:54Z</time>
      </trkpt>
      <trkpt lat="56.900008639838" lon="14.832398345568">
        <ele>167.2</ele>
        <time>2019-11-12T18:56:58Z</time>
      </trkpt>
      <trkpt lat="56.900176361657" lon="14.832522732964">
        <ele>167.6</ele>
        <time>2019-11-12T18:57:03Z</time>
      </trkpt>
      <trkpt lat="56.900357075421" lon="14.832666063454">
        <ele>167.8</ele>
        <time>2019-11-12T18:57:08Z</time>
      </trkpt>
      <trkpt lat="56.90052060629" lon="14.832860272077">
        <ele>167.6</ele>
        <time>2019-11-12T18:57:12Z</time>
      </trkpt>
      <trkpt lat="56.900660081106" lon="14.833121871176">
        <ele>166.6</ele>
        <time>2019-11-12T18:57:16Z</time>
      </trkpt>
      <trkpt lat="56.900786061063" lon="14.833371819434">
        <ele>166.8</ele>
        <time>2019-11-12T18:57:20Z</time>
      </trkpt>
      <trkpt lat="56.90091707016" lon="14.83363366999">
        <ele>167.4</ele>
        <time>2019-11-12T18:57:25Z</time>
      </trkpt>
      <trkpt lat="56.9009556269" lon="14.833727128175">
        <ele>167.2</ele>
        <time>2019-11-12T18:57:27Z</time>
      </trkpt>
      <trkpt lat="56.901047492524" lon="14.833938687331">
        <ele>168.4</ele>
        <time>2019-11-12T18:57:33Z</time>
      </trkpt>
      <trkpt lat="56.901066770894" lon="14.833993588776">
        <ele>169.6</ele>
        <time>2019-11-12T18:57:45Z</time>
      </trkpt>
      <trkpt lat="56.901095688449" lon="14.834038683398">
        <ele>170</ele>
        <time>2019-11-12T18:57:49Z</time>
      </trkpt>
      <trkpt lat="56.901103902711" lon="14.834059721967">
        <ele>169.4</ele>
        <time>2019-11-12T18:57:52Z</time>
      </trkpt>
      <trkpt lat="56.901120498873" lon="14.834093501024">
        <ele>169</ele>
        <time>2019-11-12T18:57:54Z</time>
      </trkpt>
      <trkpt lat="56.901052437845" lon="14.834093920119">
        <ele>169.2</ele>
        <time>2019-11-12T18:58:04Z</time>
      </trkpt>
      <trkpt lat="56.90100927106" lon="14.83407874888">
        <ele>170</ele>
        <time>2019-11-12T18:58:08Z</time>
      </trkpt>
      <trkpt lat="56.901003152273" lon="14.834091657006">
        <ele>170</ele>
        <time>2019-11-12T18:58:09Z</time>
      </trkpt>
      <trkpt lat="56.900975240546" lon="14.834132476859">
        <ele>169</ele>
        <time>2019-11-12T18:58:16Z</time>
      </trkpt>
      <trkpt lat="56.90099586002" lon="14.834136332533">
        <ele>170.6</ele>
        <time>2019-11-12T18:58:51Z</time>
      </trkpt>
      <trkpt lat="56.900999967151" lon="14.834138595646">
        <ele>170.8</ele>
        <time>2019-11-12T18:58:52Z</time>
      </trkpt>
      <trkpt lat="56.901058891908" lon="14.833578517088">
        <ele>170</ele>
        <time>2019-11-12T19:02:42Z</time>
      </trkpt>
      <trkpt lat="56.901046235239" lon="14.833502325617">
        <ele>169.2</ele>
        <time>2019-11-12T19:02:44Z</time>
      </trkpt>
      <trkpt lat="56.901013881105" lon="14.833338040377">
        <ele>168</ele>
        <time>2019-11-12T19:02:48Z</time>
      </trkpt>
      <trkpt lat="56.90100927106" lon="14.833156069328">
        <ele>167.8</ele>
        <time>2019-11-12T19:02:53Z</time>
      </trkpt>
      <trkpt lat="56.900953615244" lon="14.83282146388">
        <ele>168</ele>
        <time>2019-11-12T19:03:01Z</time>
      </trkpt>
      <trkpt lat="56.900908520622" lon="14.832488870088">
        <ele>168</ele>
        <time>2019-11-12T19:03:08Z</time>
      </trkpt>
      <trkpt lat="56.90082319288" lon="14.83217186663">
        <ele>168</ele>
        <time>2019-11-12T19:03:15Z</time>
      </trkpt>
      <trkpt lat="56.900736104939" lon="14.831824185418">
        <ele>168.4</ele>
        <time>2019-11-12T19:03:23Z</time>
      </trkpt>
      <trkpt lat="56.900657566536" lon="14.831509025978">
        <ele>168.4</ele>
        <time>2019-11-12T19:03:31Z</time>
      </trkpt>
      <trkpt lat="56.90059436701" lon="14.831195207642">
        <ele>168.4</ele>
        <time>2019-11-12T19:03:39Z</time>
      </trkpt>
      <trkpt lat="56.900524881059" lon="14.830858590538">
        <ele>168.4</ele>
        <time>2019-11-12T19:03:47Z</time>
      </trkpt>
      <trkpt lat="56.90044097824" lon="14.830547119134">
        <ele>168.2</ele>
        <time>2019-11-12T19:03:54Z</time>
      </trkpt>
      <trkpt lat="56.900389345736" lon="14.830355089805">
        <ele>168.2</ele>
        <time>2019-11-12T19:03:59Z</time>
      </trkpt>
      <trkpt lat="56.900312316075" lon="14.830057280898">
        <ele>167.8</ele>
        <time>2019-11-12T19:04:07Z</time>
      </trkpt>
      <trkpt lat="56.900181474616" lon="14.829782438397">
        <ele>167.4</ele>
        <time>2019-11-12T19:04:16Z</time>
      </trkpt>
      <trkpt lat="56.900031187149" lon="14.829588313593">
        <ele>167</ele>
        <time>2019-11-12T19:04:22Z</time>
      </trkpt>
      <trkpt lat="56.900015764453" lon="14.829564760454">
        <ele>166.8</ele>
        <time>2019-11-12T19:04:23Z</time>
      </trkpt>
      <trkpt lat="56.899878636569" lon="14.829353201298">
        <ele>165.8</ele>
        <time>2019-11-12T19:04:30Z</time>
      </trkpt>
      <trkpt lat="56.899703119583" lon="14.829230406463">
        <ele>165.6</ele>
        <time>2019-11-12T19:04:38Z</time>
      </trkpt>
      <trkpt lat="56.899507653675" lon="14.829117669908">
        <ele>165.8</ele>
        <time>2019-11-12T19:04:45Z</time>
      </trkpt>
      <trkpt lat="56.899412183834" lon="14.829064444843">
        <ele>165.8</ele>
        <time>2019-11-12T19:04:49Z</time>
      </trkpt>
      <trkpt lat="56.899247563318" lon="14.828917761593">
        <ele>165.4</ele>
        <time>2019-11-12T19:04:56Z</time>
      </trkpt>
      <trkpt lat="56.899160391558" lon="14.828635962115">
        <ele>166</ele>
        <time>2019-11-12T19:05:02Z</time>
      </trkpt>
      <trkpt lat="56.899125355216" lon="14.828309068015">
        <ele>165.2</ele>
        <time>2019-11-12T19:05:10Z</time>
      </trkpt>
      <trkpt lat="56.898998956164" lon="14.828017126438">
        <ele>165.4</ele>
        <time>2019-11-12T19:05:15Z</time>
      </trkpt>
      <trkpt lat="56.898877502433" lon="14.827748989457">
        <ele>165.2</ele>
        <time>2019-11-12T19:05:22Z</time>
      </trkpt>
      <trkpt lat="56.89871849779" lon="14.827500298484">
        <ele>165.6</ele>
        <time>2019-11-12T19:05:30Z</time>
      </trkpt>
      <trkpt lat="56.898581369906" lon="14.827283877826">
        <ele>165.2</ele>
        <time>2019-11-12T19:05:37Z</time>
      </trkpt>
      <trkpt lat="56.898434099923" lon="14.827068630634">
        <ele>165</ele>
        <time>2019-11-12T19:05:44Z</time>
      </trkpt>
      <trkpt lat="56.898278699497" lon="14.826894873847">
        <ele>165.4</ele>
        <time>2019-11-12T19:05:52Z</time>
      </trkpt>
      <trkpt lat="56.898116928827" lon="14.826717680481">
        <ele>165.4</ele>
        <time>2019-11-12T19:06:00Z</time>
      </trkpt>
      <trkpt lat="56.897942920583" lon="14.826551215947">
        <ele>166.6</ele>
        <time>2019-11-12T19:06:06Z</time>
      </trkpt>
      <trkpt lat="56.897759189335" lon="14.826366227414">
        <ele>165.8</ele>
        <time>2019-11-12T19:06:13Z</time>
      </trkpt>
      <trkpt lat="56.89760370509" lon="14.826193224998">
        <ele>165.8</ele>
        <time>2019-11-12T19:06:20Z</time>
      </trkpt>
      <trkpt lat="56.897445119542" lon="14.826013014148">
        <ele>165.6</ele>
        <time>2019-11-12T19:06:27Z</time>
      </trkpt>
      <trkpt lat="56.897267842357" lon="14.825853003677">
        <ele>166</ele>
        <time>2019-11-12T19:06:35Z</time>
      </trkpt>
      <trkpt lat="56.897083440557" lon="14.82579994625">
        <ele>166</ele>
        <time>2019-11-12T19:06:41Z</time>
      </trkpt>
      <trkpt lat="56.896887387916" lon="14.825840430827">
        <ele>165.8</ele>
        <time>2019-11-12T19:06:48Z</time>
      </trkpt>
      <trkpt lat="56.896728299454" lon="14.826011505406">
        <ele>165.8</ele>
        <time>2019-11-12T19:06:55Z</time>
      </trkpt>
      <trkpt lat="56.896584717507" lon="14.82621401211">
        <ele>165.4</ele>
        <time>2019-11-12T19:07:02Z</time>
      </trkpt>
      <trkpt lat="56.896424120303" lon="14.826376537151">
        <ele>165.6</ele>
        <time>2019-11-12T19:07:09Z</time>
      </trkpt>
      <trkpt lat="56.896237623028" lon="14.826494051389">
        <ele>165.4</ele>
        <time>2019-11-12T19:07:16Z</time>
      </trkpt>
      <trkpt lat="56.896071326132" lon="14.826532859586">
        <ele>165.2</ele>
        <time>2019-11-12T19:07:22Z</time>
      </trkpt>
      <trkpt lat="56.895880554088" lon="14.826506037506">
        <ele>165.4</ele>
        <time>2019-11-12T19:07:29Z</time>
      </trkpt>
      <trkpt lat="56.895690704053" lon="14.826388774725">
        <ele>165.2</ele>
        <time>2019-11-12T19:07:36Z</time>
      </trkpt>
      <trkpt lat="56.895531112677" lon="14.826220130897">
        <ele>165.4</ele>
        <time>2019-11-12T19:07:43Z</time>
      </trkpt>
      <trkpt lat="56.895375293156" lon="14.825977558711">
        <ele>165</ele>
        <time>2019-11-12T19:07:51Z</time>
      </trkpt>
      <trkpt lat="56.89525006757" lon="14.825717468354">
        <ele>165.4</ele>
        <time>2019-11-12T19:07:58Z</time>
      </trkpt>
      <trkpt lat="56.895130793133" lon="14.825460730757">
        <ele>165.8</ele>
        <time>2019-11-12T19:08:05Z</time>
      </trkpt>
      <trkpt lat="56.895010512868" lon="14.825160826375">
        <ele>165.6</ele>
        <time>2019-11-12T19:08:13Z</time>
      </trkpt>
      <trkpt lat="56.894884281454" lon="14.82485530612">
        <ele>165.6</ele>
        <time>2019-11-12T19:08:20Z</time>
      </trkpt>
      <trkpt lat="56.894781016446" lon="14.824574009556">
        <ele>166</ele>
        <time>2019-11-12T19:08:26Z</time>
      </trkpt>
      <trkpt lat="56.894674314859" lon="14.824267315835">
        <ele>165.8</ele>
        <time>2019-11-12T19:08:33Z</time>
      </trkpt>
      <trkpt lat="56.894572139498" lon="14.823988701479">
        <ele>165.6</ele>
        <time>2019-11-12T19:08:40Z</time>
      </trkpt>
      <trkpt lat="56.894453367975" lon="14.82368770745">
        <ele>165.6</ele>
        <time>2019-11-12T19:08:47Z</time>
      </trkpt>
      <trkpt lat="56.894349767691" lon="14.823417139718">
        <ele>165.6</ele>
        <time>2019-11-12T19:08:54Z</time>
      </trkpt>
      <trkpt lat="56.894217920404" lon="14.823182614156">
        <ele>165.6</ele>
        <time>2019-11-12T19:09:01Z</time>
      </trkpt>
      <trkpt lat="56.894047767834" lon="14.822996368338">
        <ele>165.4</ele>
        <time>2019-11-12T19:09:09Z</time>
      </trkpt>
      <trkpt lat="56.893875016875" lon="14.822858821359">
        <ele>165.4</ele>
        <time>2019-11-12T19:09:16Z</time>
      </trkpt>
      <trkpt lat="56.893692207636" lon="14.822828395062">
        <ele>165.8</ele>
        <time>2019-11-12T19:09:24Z</time>
      </trkpt>
      <trkpt lat="56.893489533294" lon="14.822812469452">
        <ele>165.4</ele>
        <time>2019-11-12T19:09:32Z</time>
      </trkpt>
      <trkpt lat="56.893286607495" lon="14.822819258791">
        <ele>165.6</ele>
        <time>2019-11-12T19:09:40Z</time>
      </trkpt>
      <trkpt lat="56.893088459379" lon="14.822860162463">
        <ele>166</ele>
        <time>2019-11-12T19:09:49Z</time>
      </trkpt>
      <trkpt lat="56.892886958503" lon="14.822871226571">
        <ele>166</ele>
        <time>2019-11-12T19:09:57Z</time>
      </trkpt>
      <trkpt lat="56.892697611382" lon="14.822873154408">
        <ele>166</ele>
        <time>2019-11-12T19:10:05Z</time>
      </trkpt>
      <trkpt lat="56.892495104678" lon="14.822875333702">
        <ele>166.6</ele>
        <time>2019-11-12T19:10:14Z</time>
      </trkpt>
      <trkpt lat="56.892379183001" lon="14.822862844671">
        <ele>166.8</ele>
        <time>2019-11-12T19:10:19Z</time>
      </trkpt>
      <trkpt lat="56.892184387645" lon="14.822887655095">
        <ele>167</ele>
        <time>2019-11-12T19:10:27Z</time>
      </trkpt>
      <trkpt lat="56.891988837918" lon="14.822944149101">
        <ele>167</ele>
        <time>2019-11-12T19:10:35Z</time>
      </trkpt>
      <trkpt lat="56.891794042562" lon="14.822965774403">
        <ele>166.8</ele>
        <time>2019-11-12T19:10:43Z</time>
      </trkpt>
      <trkpt lat="56.891609892219" lon="14.823008019179">
        <ele>167</ele>
        <time>2019-11-12T19:10:51Z</time>
      </trkpt>
      <trkpt lat="56.891429262274" lon="14.823030734128">
        <ele>167.6</ele>
        <time>2019-11-12T19:10:59Z</time>
      </trkpt>
      <trkpt lat="56.891317866823" lon="14.823069877601">
        <ele>167.6</ele>
        <time>2019-11-12T19:11:05Z</time>
      </trkpt>
      <trkpt lat="56.891291380019" lon="14.823197031024">
        <ele>168.2</ele>
        <time>2019-11-12T19:11:09Z</time>
      </trkpt>
      <trkpt lat="56.891332451329" lon="14.823549322281">
        <ele>167.4</ele>
        <time>2019-11-12T19:11:18Z</time>
      </trkpt>
      <trkpt lat="56.891334714442" lon="14.823623502096">
        <ele>167</ele>
        <time>2019-11-12T19:11:20Z</time>
      </trkpt>
      <trkpt lat="56.891343850713" lon="14.823796420693">
        <ele>167</ele>
        <time>2019-11-12T19:11:25Z</time>
      </trkpt>
    </trkseg>
  </trk>
</gpx>